PWSweather.com
Personal Weather Stations
Station Observations
TOSCANA255
MontespertoliIT 50025

MontespertoliIT 50025

Lat: 43.6454582, Lon: 11.0691319

Elevation: 843

Station Type: PCE-FWS20

http://www.meteomontespertoli.it

Latest ConditionsUpdated 7:07:12 AM GMT+01:01 Thursday, Oct 18, 2018
Currently Today's Max Today's Min Today's Average
Temperature 61.3°F16.3°C 62.8°F17.1°C 60.4°F15.8°C 61.9°F16.6°C
Dew Point 55.5°F13.1°C 56.5°F13.6°C 55.3°F12.9°C 56.0°F13.3°C
Winds 2.7 mph NW4.3 kmh NW 5.0 mph -8.0 kmh - - 2.5 mph 4.0 kmh
Wind Gusts 3.7 mph6.0 kmh 5.9 mph9.5 kmh - -
Humidity 81% 84% 79% 81%
Pressure 30.02 in1016.6 mb 30.06 in1017.9 mb 30.01 in1016.3 mb -
Hour Temp Dew Point Humidity Winds Wind Gusts Pressure Precip Precip Rate Daily Precip Total
07:07 AM 61.3°F16.3°C 55.5°F13.1°C 81% 2.7 mph NW4.3 kmh NW 3.7 mph6.0 kmh 30.02 in1016.6 mb 1.39 in35.3 mm 0.00 in0.0 mm 1.39 in35.3 mm
07:06 AM 61.3°F16.3°C 55.5°F13.1°C 81% 3.2 mph NW5.1 kmh NW 3.7 mph6.0 kmh 30.02 in1016.6 mb 1.39 in35.3 mm 0.00 in0.0 mm 1.39 in35.3 mm
07:05 AM 61.3°F16.3°C 55.8°F13.2°C 82% 2.7 mph NW4.3 kmh NW 3.2 mph5.1 kmh 30.02 in1016.6 mb 1.39 in35.3 mm 0.00 in0.0 mm 1.39 in35.3 mm
07:04 AM 61.0°F16.1°C 55.8°F13.2°C 83% 2.7 mph NW4.3 kmh NW 4.1 mph6.6 kmh 30.02 in1016.6 mb 1.39 in35.3 mm 0.00 in0.0 mm 1.39 in35.3 mm
07:00 AM 61.0°F16.1°C 55.8°F13.2°C 83% 2.7 mph 4.3 kmh 4.6 mph7.4 kmh 30.02 in1016.6 mb 1.39 in35.3 mm 0.00 in0.0 mm 1.39 in35.3 mm
06:59 AM 60.8°F16.0°C 55.6°F13.1°C 83% 2.7 mph 4.3 kmh 4.6 mph7.4 kmh 30.02 in1016.6 mb 1.39 in35.3 mm 0.00 in0.0 mm 1.39 in35.3 mm
06:58 AM 60.8°F16.0°C 55.6°F13.1°C 83% 2.3 mph 3.7 kmh 3.2 mph5.1 kmh 30.02 in1016.6 mb 1.39 in35.3 mm 0.00 in0.0 mm 1.39 in35.3 mm
06:57 AM 60.8°F16.0°C 55.6°F13.1°C 83% 2.7 mph 4.3 kmh 3.7 mph6.0 kmh 30.02 in1016.6 mb 1.39 in35.3 mm 0.00 in0.0 mm 1.39 in35.3 mm
06:56 AM 60.6°F15.9°C 55.8°F13.2°C 84% 3.2 mph 5.1 kmh 4.6 mph7.4 kmh 30.02 in1016.6 mb 1.39 in35.3 mm 0.00 in0.0 mm 1.39 in35.3 mm
06:55 AM 60.6°F15.9°C 55.8°F13.2°C 84% 2.7 mph NW4.3 kmh NW 4.6 mph7.4 kmh 30.02 in1016.6 mb 1.39 in35.3 mm 0.00 in0.0 mm 1.39 in35.3 mm
06:54 AM 60.6°F15.9°C 55.8°F13.2°C 84% 2.3 mph 3.7 kmh 3.2 mph5.1 kmh 30.02 in1016.6 mb 1.39 in35.3 mm 0.00 in0.0 mm 1.39 in35.3 mm
06:53 AM 60.6°F15.9°C 55.8°F13.2°C 84% 1.8 mph 2.9 kmh 2.7 mph4.3 kmh 30.02 in1016.6 mb 1.39 in35.3 mm 0.00 in0.0 mm 1.39 in35.3 mm
06:52 AM 60.4°F15.8°C 55.6°F13.1°C 84% 1.8 mph 2.9 kmh 2.7 mph4.3 kmh 30.02 in1016.6 mb 1.39 in35.3 mm 0.00 in0.0 mm 1.39 in35.3 mm
06:51 AM 60.4°F15.8°C 55.6°F13.1°C 84% 1.8 mph 2.9 kmh 2.7 mph4.3 kmh 30.01 in1016.3 mb 1.39 in35.3 mm 0.00 in0.0 mm 1.39 in35.3 mm
06:50 AM 60.4°F15.8°C 55.6°F13.1°C 84% 2.3 mph 3.7 kmh 4.1 mph6.6 kmh 30.02 in1016.6 mb 1.39 in35.3 mm 0.00 in0.0 mm 1.39 in35.3 mm
06:49 AM 60.4°F15.8°C 55.6°F13.1°C 84% 2.3 mph 3.7 kmh 3.2 mph5.1 kmh 30.01 in1016.3 mb 1.39 in35.3 mm 0.00 in0.0 mm 1.39 in35.3 mm
06:48 AM 60.4°F15.8°C 55.6°F13.1°C 84% 2.3 mph W3.7 kmh W 3.2 mph5.1 kmh 30.02 in1016.6 mb 1.39 in35.3 mm 0.00 in0.0 mm 1.39 in35.3 mm
06:47 AM 60.4°F15.8°C 55.6°F13.1°C 84% 2.3 mph 3.7 kmh 2.7 mph4.3 kmh 30.01 in1016.3 mb 1.39 in35.3 mm 0.00 in0.0 mm 1.39 in35.3 mm
06:46 AM 60.4°F15.8°C 55.3°F12.9°C 83% 2.3 mph 3.7 kmh 2.7 mph4.3 kmh 30.01 in1016.3 mb 1.39 in35.3 mm 0.00 in0.0 mm 1.39 in35.3 mm
06:45 AM 60.6°F15.9°C 55.4°F13.0°C 83% 2.3 mph E3.7 kmh E 3.7 mph6.0 kmh 30.01 in1016.3 mb 1.39 in35.3 mm 0.00 in0.0 mm 1.39 in35.3 mm
06:44 AM 60.6°F15.9°C 55.4°F13.0°C 83% 2.7 mph 4.3 kmh 4.1 mph6.6 kmh 30.01 in1016.3 mb 1.39 in35.3 mm 0.00 in0.0 mm 1.39 in35.3 mm
06:43 AM 60.6°F15.9°C 55.4°F13.0°C 83% 2.3 mph 3.7 kmh 3.2 mph5.1 kmh 30.01 in1016.3 mb 1.39 in35.3 mm 0.00 in0.0 mm 1.39 in35.3 mm
06:42 AM 60.6°F15.9°C 55.4°F13.0°C 83% 2.7 mph 4.3 kmh 3.7 mph6.0 kmh 30.01 in1016.3 mb 1.39 in35.3 mm 0.00 in0.0 mm 1.39 in35.3 mm
06:41 AM 60.8°F16.0°C 55.3°F12.9°C 82% 2.7 mph 4.3 kmh 3.7 mph6.0 kmh 30.01 in1016.3 mb 1.39 in35.3 mm 0.00 in0.0 mm 1.39 in35.3 mm
06:40 AM 60.8°F16.0°C 55.3°F12.9°C 82% 3.2 mph 5.1 kmh 3.7 mph6.0 kmh 30.01 in1016.3 mb 1.39 in35.3 mm 0.00 in0.0 mm 1.39 in35.3 mm
06:39 AM 60.8°F16.0°C 55.3°F12.9°C 82% 2.3 mph NW3.7 kmh NW 4.1 mph6.6 kmh 30.01 in1016.3 mb 1.39 in35.3 mm 0.00 in0.0 mm 1.39 in35.3 mm
06:38 AM 61.0°F16.1°C 55.4°F13.0°C 82% 2.3 mph NW3.7 kmh NW 3.2 mph5.1 kmh 30.01 in1016.3 mb 1.39 in35.3 mm 0.00 in0.0 mm 1.39 in35.3 mm
06:37 AM 61.0°F16.1°C 55.4°F13.0°C 82% 2.7 mph 4.3 kmh 4.1 mph6.6 kmh 30.01 in1016.3 mb 1.39 in35.3 mm 0.00 in0.0 mm 1.39 in35.3 mm
06:36 AM 61.0°F16.1°C 55.4°F13.0°C 82% 2.7 mph 4.3 kmh 4.1 mph6.6 kmh 30.01 in1016.3 mb 1.39 in35.3 mm 0.00 in0.0 mm 1.39 in35.3 mm
06:35 AM 61.0°F16.1°C 55.4°F13.0°C 82% 3.2 mph 5.1 kmh 5.0 mph8.0 kmh 30.01 in1016.3 mb 1.39 in35.3 mm 0.00 in0.0 mm 1.39 in35.3 mm
06:34 AM 61.0°F16.1°C 55.4°F13.0°C 82% 3.7 mph 6.0 kmh 5.0 mph8.0 kmh 30.01 in1016.3 mb 1.39 in35.3 mm 0.00 in0.0 mm 1.39 in35.3 mm
06:33 AM 61.0°F16.1°C 55.4°F13.0°C 82% 3.2 mph 5.1 kmh 4.6 mph7.4 kmh 30.01 in1016.3 mb 1.39 in35.3 mm 0.00 in0.0 mm 1.39 in35.3 mm
06:32 AM 61.0°F16.1°C 55.4°F13.0°C 82% 2.7 mph 4.3 kmh 4.1 mph6.6 kmh 30.01 in1016.3 mb 1.39 in35.3 mm 0.00 in0.0 mm 1.39 in35.3 mm
06:31 AM 60.8°F16.0°C 55.3°F12.9°C 82% 3.2 mph W5.1 kmh W 4.6 mph7.4 kmh 30.01 in1016.3 mb 1.39 in35.3 mm 0.00 in0.0 mm 1.39 in35.3 mm
06:30 AM 60.8°F16.0°C 55.3°F12.9°C 82% 3.2 mph E5.1 kmh E 4.1 mph6.6 kmh 30.01 in1016.3 mb 1.39 in35.3 mm 0.00 in0.0 mm 1.39 in35.3 mm
06:29 AM 60.8°F16.0°C 55.6°F13.1°C 83% 3.2 mph W5.1 kmh W 4.6 mph7.4 kmh 30.01 in1016.3 mb 1.39 in35.3 mm 0.00 in0.0 mm 1.39 in35.3 mm
06:28 AM 60.8°F16.0°C 55.6°F13.1°C 83% 4.1 mph 6.6 kmh 5.5 mph8.9 kmh 30.01 in1016.3 mb 1.39 in35.3 mm 0.00 in0.0 mm 1.39 in35.3 mm
06:27 AM 60.8°F16.0°C 55.6°F13.1°C 83% 3.2 mph 5.1 kmh 4.6 mph7.4 kmh 30.01 in1016.3 mb 1.39 in35.3 mm 0.00 in0.0 mm 1.39 in35.3 mm
06:26 AM 60.8°F16.0°C 55.6°F13.1°C 83% 2.7 mph W4.3 kmh W 5.0 mph8.0 kmh 30.01 in1016.3 mb 1.39 in35.3 mm 0.00 in0.0 mm 1.39 in35.3 mm
06:25 AM 60.8°F16.0°C 55.6°F13.1°C 83% 2.3 mph 3.7 kmh 3.7 mph6.0 kmh 30.01 in1016.3 mb 1.39 in35.3 mm 0.00 in0.0 mm 1.39 in35.3 mm
06:24 AM 60.8°F16.0°C 55.6°F13.1°C 83% 2.7 mph 4.3 kmh 3.7 mph6.0 kmh 30.01 in1016.3 mb 1.39 in35.3 mm 0.00 in0.0 mm 1.39 in35.3 mm
06:23 AM 60.8°F16.0°C 55.6°F13.1°C 83% 2.3 mph 3.7 kmh 3.2 mph5.1 kmh 30.01 in1016.3 mb 1.39 in35.3 mm 0.00 in0.0 mm 1.39 in35.3 mm
06:22 AM 60.8°F16.0°C 55.6°F13.1°C 83% 2.3 mph NW3.7 kmh NW 3.2 mph5.1 kmh 30.01 in1016.3 mb 1.39 in35.3 mm 0.00 in0.0 mm 1.39 in35.3 mm
06:21 AM 60.8°F16.0°C 55.6°F13.1°C 83% 2.3 mph NW3.7 kmh NW 3.2 mph5.1 kmh 30.01 in1016.3 mb 1.39 in35.3 mm 0.00 in0.0 mm 1.39 in35.3 mm
06:20 AM 60.8°F16.0°C 55.6°F13.1°C 83% 2.3 mph NW3.7 kmh NW 2.7 mph4.3 kmh 30.01 in1016.3 mb 1.39 in35.3 mm 0.00 in0.0 mm 1.39 in35.3 mm
06:19 AM 60.8°F16.0°C 55.6°F13.1°C 83% 2.3 mph 3.7 kmh 3.2 mph5.1 kmh 30.01 in1016.3 mb 1.39 in35.3 mm 0.00 in0.0 mm 1.39 in35.3 mm
06:18 AM 60.8°F16.0°C 55.6°F13.1°C 83% 1.8 mph 2.9 kmh 2.7 mph4.3 kmh 30.01 in1016.3 mb 1.39 in35.3 mm 0.00 in0.0 mm 1.39 in35.3 mm
06:17 AM 60.8°F16.0°C 55.6°F13.1°C 83% 2.3 mph 3.7 kmh 3.7 mph6.0 kmh 30.01 in1016.3 mb 1.39 in35.3 mm 0.00 in0.0 mm 1.39 in35.3 mm
06:16 AM 60.6°F15.9°C 55.8°F13.2°C 84% 2.3 mph 3.7 kmh 4.1 mph6.6 kmh 30.01 in1016.3 mb 1.39 in35.3 mm 0.00 in0.0 mm 1.39 in35.3 mm
06:15 AM 60.6°F15.9°C 55.8°F13.2°C 84% 2.7 mph 4.3 kmh 3.7 mph6.0 kmh 30.01 in1016.3 mb 1.39 in35.3 mm 0.00 in0.0 mm 1.39 in35.3 mm
06:14 AM 60.8°F16.0°C 55.6°F13.1°C 83% 3.2 mph WNW5.1 kmh WNW 5.5 mph8.9 kmh 30.01 in1016.3 mb 1.39 in35.3 mm 0.00 in0.0 mm 1.39 in35.3 mm
06:13 AM 60.8°F16.0°C 55.6°F13.1°C 83% 2.3 mph E3.7 kmh E 3.2 mph5.1 kmh 30.01 in1016.3 mb 1.39 in35.3 mm 0.00 in0.0 mm 1.39 in35.3 mm
06:12 AM 60.8°F16.0°C 55.6°F13.1°C 83% 3.2 mph 5.1 kmh 4.6 mph7.4 kmh 30.01 in1016.3 mb 1.39 in35.3 mm 0.00 in0.0 mm 1.39 in35.3 mm
06:11 AM 60.8°F16.0°C 55.3°F12.9°C 82% 2.3 mph 3.7 kmh 3.7 mph6.0 kmh 30.01 in1016.3 mb 1.39 in35.3 mm 0.00 in0.0 mm 1.39 in35.3 mm
06:10 AM 60.8°F16.0°C 55.3°F12.9°C 82% 2.3 mph 3.7 kmh 3.2 mph5.1 kmh 30.01 in1016.3 mb 1.39 in35.3 mm 0.00 in0.0 mm 1.39 in35.3 mm
06:09 AM 60.8°F16.0°C 55.3°F12.9°C 82% 2.7 mph 4.3 kmh 3.7 mph6.0 kmh 30.01 in1016.3 mb 1.39 in35.3 mm 0.00 in0.0 mm 1.39 in35.3 mm
06:08 AM 60.8°F16.0°C 55.3°F12.9°C 82% 2.7 mph WNW4.3 kmh WNW 4.6 mph7.4 kmh 30.01 in1016.3 mb 1.39 in35.3 mm 0.00 in0.0 mm 1.39 in35.3 mm
06:07 AM 60.8°F16.0°C 55.3°F12.9°C 82% 2.3 mph W3.7 kmh W 3.7 mph6.0 kmh 30.01 in1016.3 mb 1.39 in35.3 mm 0.00 in0.0 mm 1.39 in35.3 mm
06:06 AM 60.8°F16.0°C 55.3°F12.9°C 82% 2.3 mph E3.7 kmh E 3.2 mph5.1 kmh 30.01 in1016.3 mb 1.39 in35.3 mm 0.00 in0.0 mm 1.39 in35.3 mm
06:05 AM 60.8°F16.0°C 55.3°F12.9°C 82% 2.7 mph W4.3 kmh W 3.2 mph5.1 kmh 30.01 in1016.3 mb 1.39 in35.3 mm 0.00 in0.0 mm 1.39 in35.3 mm
06:04 AM 61.0°F16.1°C 55.4°F13.0°C 82% 3.7 mph 6.0 kmh 5.0 mph8.0 kmh 30.01 in1016.3 mb 1.39 in35.3 mm 0.00 in0.0 mm 1.39 in35.3 mm
06:03 AM 61.0°F16.1°C 55.4°F13.0°C 82% 2.7 mph 4.3 kmh 4.6 mph7.4 kmh 30.01 in1016.3 mb 1.39 in35.3 mm 0.00 in0.0 mm 1.39 in35.3 mm
06:02 AM 61.0°F16.1°C 55.4°F13.0°C 82% 2.3 mph E3.7 kmh E 3.2 mph5.1 kmh 30.01 in1016.3 mb 1.39 in35.3 mm 0.00 in0.0 mm 1.39 in35.3 mm
06:01 AM 61.0°F16.1°C 55.4°F13.0°C 82% 2.7 mph 4.3 kmh 4.6 mph7.4 kmh 30.01 in1016.3 mb 1.39 in35.3 mm 0.00 in0.0 mm 1.39 in35.3 mm
06:00 AM 61.0°F16.1°C 55.4°F13.0°C 82% 3.2 mph W5.1 kmh W 4.1 mph6.6 kmh 30.01 in1016.3 mb 1.39 in35.3 mm 0.00 in0.0 mm 1.39 in35.3 mm
05:59 AM 61.0°F16.1°C 55.4°F13.0°C 82% 4.1 mph 6.6 kmh 5.5 mph8.9 kmh 30.01 in1016.3 mb 1.39 in35.3 mm 0.00 in0.0 mm 1.39 in35.3 mm
05:58 AM 61.2°F16.2°C 55.6°F13.1°C 82% 3.7 mph 6.0 kmh 4.6 mph7.4 kmh 30.01 in1016.3 mb 1.39 in35.3 mm 0.00 in0.0 mm 1.39 in35.3 mm
05:57 AM 61.2°F16.2°C 55.6°F13.1°C 82% 3.2 mph W5.1 kmh W 5.0 mph8.0 kmh 30.01 in1016.3 mb 1.39 in35.3 mm 0.00 in0.0 mm 1.39 in35.3 mm
05:56 AM 61.2°F16.2°C 55.6°F13.1°C 82% 4.1 mph 6.6 kmh 5.0 mph8.0 kmh 30.01 in1016.3 mb 1.39 in35.3 mm 0.00 in0.0 mm 1.39 in35.3 mm
05:55 AM 61.2°F16.2°C 55.6°F13.1°C 82% 3.2 mph 5.1 kmh 5.0 mph8.0 kmh 30.01 in1016.3 mb 1.39 in35.3 mm 0.00 in0.0 mm 1.39 in35.3 mm
05:54 AM 61.2°F16.2°C 55.6°F13.1°C 82% 5.0 mph W8.0 kmh W 5.9 mph9.5 kmh 30.01 in1016.3 mb 1.39 in35.3 mm 0.00 in0.0 mm 1.39 in35.3 mm
05:53 AM 61.2°F16.2°C 55.6°F13.1°C 82% 4.1 mph 6.6 kmh 5.0 mph8.0 kmh 30.01 in1016.3 mb 1.39 in35.3 mm 0.00 in0.0 mm 1.39 in35.3 mm
05:52 AM 61.2°F16.2°C 55.6°F13.1°C 82% 3.7 mph W6.0 kmh W 5.5 mph8.9 kmh 30.01 in1016.3 mb 1.39 in35.3 mm 0.00 in0.0 mm 1.39 in35.3 mm
05:51 AM 61.2°F16.2°C 55.6°F13.1°C 82% 3.7 mph 6.0 kmh 5.5 mph8.9 kmh 30.01 in1016.3 mb 1.39 in35.3 mm 0.00 in0.0 mm 1.39 in35.3 mm
05:50 AM 61.0°F16.1°C 55.4°F13.0°C 82% 4.1 mph 6.6 kmh 5.5 mph8.9 kmh 30.01 in1016.3 mb 1.39 in35.3 mm 0.00 in0.0 mm 1.39 in35.3 mm
05:49 AM 61.0°F16.1°C 55.4°F13.0°C 82% 3.2 mph W5.1 kmh W 5.0 mph8.0 kmh 30.01 in1016.3 mb 1.39 in35.3 mm 0.00 in0.0 mm 1.39 in35.3 mm
05:48 AM 61.0°F16.1°C 55.4°F13.0°C 82% 3.7 mph W6.0 kmh W 4.6 mph7.4 kmh 30.02 in1016.6 mb 1.39 in35.3 mm 0.00 in0.0 mm 1.39 in35.3 mm
05:47 AM 61.2°F16.2°C 55.6°F13.1°C 82% 3.7 mph 6.0 kmh 4.6 mph7.4 kmh 30.01 in1016.3 mb 1.39 in35.3 mm 0.00 in0.0 mm 1.39 in35.3 mm
05:46 AM 61.2°F16.2°C 55.6°F13.1°C 82% 3.2 mph 5.1 kmh 4.6 mph7.4 kmh 30.02 in1016.6 mb 1.39 in35.3 mm 0.00 in0.0 mm 1.39 in35.3 mm
05:45 AM 61.2°F16.2°C 55.6°F13.1°C 82% 2.7 mph 4.3 kmh 3.7 mph6.0 kmh 30.02 in1016.6 mb 1.39 in35.3 mm 0.00 in0.0 mm 1.39 in35.3 mm
05:44 AM 61.2°F16.2°C 55.6°F13.1°C 82% 2.7 mph E4.3 kmh E 4.1 mph6.6 kmh 30.02 in1016.6 mb 1.39 in35.3 mm 0.00 in0.0 mm 1.39 in35.3 mm
05:43 AM 61.2°F16.2°C 55.6°F13.1°C 82% 2.3 mph 3.7 kmh 4.1 mph6.6 kmh 30.02 in1016.6 mb 1.39 in35.3 mm 0.00 in0.0 mm 1.39 in35.3 mm
05:42 AM 61.2°F16.2°C 55.6°F13.1°C 82% 3.2 mph 5.1 kmh 4.1 mph6.6 kmh 30.01 in1016.3 mb 1.39 in35.3 mm 0.00 in0.0 mm 1.39 in35.3 mm
05:41 AM 61.2°F16.2°C 55.6°F13.1°C 82% 2.3 mph 3.7 kmh 3.7 mph6.0 kmh 30.02 in1016.6 mb 1.39 in35.3 mm 0.00 in0.0 mm 1.39 in35.3 mm
05:40 AM 61.2°F16.2°C 55.6°F13.1°C 82% 2.7 mph 4.3 kmh 4.1 mph6.6 kmh 30.02 in1016.6 mb 1.39 in35.3 mm 0.00 in0.0 mm 1.39 in35.3 mm
05:39 AM 61.2°F16.2°C 55.6°F13.1°C 82% 2.3 mph 3.7 kmh 3.7 mph6.0 kmh 30.01 in1016.3 mb 1.39 in35.3 mm 0.00 in0.0 mm 1.39 in35.3 mm
05:38 AM 61.2°F16.2°C 55.6°F13.1°C 82% 1.8 mph W2.9 kmh W 3.2 mph5.1 kmh 30.02 in1016.6 mb 1.39 in35.3 mm 0.00 in0.0 mm 1.39 in35.3 mm
05:37 AM 61.2°F16.2°C 55.6°F13.1°C 82% 2.7 mph W4.3 kmh W 4.6 mph7.4 kmh 30.02 in1016.6 mb 1.39 in35.3 mm 0.00 in0.0 mm 1.39 in35.3 mm
05:36 AM 61.2°F16.2°C 55.6°F13.1°C 82% 2.3 mph 3.7 kmh 3.7 mph6.0 kmh 30.02 in1016.6 mb 1.39 in35.3 mm 0.00 in0.0 mm 1.39 in35.3 mm
05:35 AM 61.2°F16.2°C 55.6°F13.1°C 82% 0.9 mph NW1.4 kmh NW 1.8 mph2.9 kmh 30.02 in1016.6 mb 1.39 in35.3 mm 0.00 in0.0 mm 1.39 in35.3 mm
05:34 AM 61.2°F16.2°C 55.6°F13.1°C 82% 2.3 mph NW3.7 kmh NW 3.2 mph5.1 kmh 30.02 in1016.6 mb 1.39 in35.3 mm 0.00 in0.0 mm 1.39 in35.3 mm
05:33 AM 61.3°F16.3°C 55.8°F13.2°C 82% 2.3 mph 3.7 kmh 3.7 mph6.0 kmh 30.02 in1016.6 mb 1.39 in35.3 mm 0.00 in0.0 mm 1.39 in35.3 mm
05:32 AM 61.3°F16.3°C 55.8°F13.2°C 82% 2.3 mph 3.7 kmh 3.7 mph6.0 kmh 30.02 in1016.6 mb 1.39 in35.3 mm 0.00 in0.0 mm 1.39 in35.3 mm
05:31 AM 61.3°F16.3°C 55.8°F13.2°C 82% 3.2 mph 5.1 kmh 4.1 mph6.6 kmh 30.02 in1016.6 mb 1.39 in35.3 mm 0.00 in0.0 mm 1.39 in35.3 mm
05:30 AM 61.3°F16.3°C 55.5°F13.1°C 81% 2.7 mph W4.3 kmh W 4.1 mph6.6 kmh 30.02 in1016.6 mb 1.39 in35.3 mm 0.00 in0.0 mm 1.39 in35.3 mm
05:29 AM 61.3°F16.3°C 55.5°F13.1°C 81% 2.3 mph W3.7 kmh W 4.1 mph6.6 kmh 30.02 in1016.6 mb 1.39 in35.3 mm 0.00 in0.0 mm 1.39 in35.3 mm
05:28 AM 61.5°F16.4°C 55.6°F13.1°C 81% 2.3 mph 3.7 kmh 3.2 mph5.1 kmh 30.02 in1016.6 mb 1.39 in35.3 mm 0.00 in0.0 mm 1.39 in35.3 mm
05:27 AM 61.5°F16.4°C 55.6°F13.1°C 81% 3.2 mph 5.1 kmh 4.6 mph7.4 kmh 30.02 in1016.6 mb 1.39 in35.3 mm 0.00 in0.0 mm 1.39 in35.3 mm
05:26 AM 61.5°F16.4°C 55.6°F13.1°C 81% 2.3 mph 3.7 kmh 2.7 mph4.3 kmh 30.02 in1016.6 mb 1.39 in35.3 mm 0.00 in0.0 mm 1.39 in35.3 mm
05:25 AM 61.5°F16.4°C 55.6°F13.1°C 81% 2.7 mph NW4.3 kmh NW 3.7 mph6.0 kmh 30.02 in1016.6 mb 1.39 in35.3 mm 0.00 in0.0 mm 1.39 in35.3 mm
05:24 AM 61.5°F16.4°C 55.6°F13.1°C 81% 2.7 mph 4.3 kmh 4.6 mph7.4 kmh 30.02 in1016.6 mb 1.39 in35.3 mm 0.00 in0.0 mm 1.39 in35.3 mm
05:23 AM 61.5°F16.4°C 55.6°F13.1°C 81% 2.7 mph 4.3 kmh 4.1 mph6.6 kmh 30.02 in1016.6 mb 1.39 in35.3 mm 0.00 in0.0 mm 1.39 in35.3 mm
05:22 AM 61.5°F16.4°C 55.6°F13.1°C 81% 2.3 mph E3.7 kmh E 3.2 mph5.1 kmh 30.02 in1016.6 mb 1.39 in35.3 mm 0.00 in0.0 mm 1.39 in35.3 mm
05:21 AM 61.7°F16.5°C 55.8°F13.2°C 81% 2.3 mph WNW3.7 kmh WNW 3.7 mph6.0 kmh 30.02 in1016.6 mb 1.39 in35.3 mm 0.00 in0.0 mm 1.39 in35.3 mm
05:20 AM 61.7°F16.5°C 55.8°F13.2°C 81% 2.3 mph 3.7 kmh 3.7 mph6.0 kmh 30.02 in1016.6 mb 1.39 in35.3 mm 0.00 in0.0 mm 1.39 in35.3 mm
05:19 AM 61.7°F16.5°C 56.2°F13.4°C 82% 2.3 mph W3.7 kmh W 3.2 mph5.1 kmh 30.02 in1016.6 mb 1.39 in35.3 mm 0.00 in0.0 mm 1.39 in35.3 mm
05:18 AM 61.7°F16.5°C 56.2°F13.4°C 82% 1.8 mph NW2.9 kmh NW 3.2 mph5.1 kmh 30.02 in1016.6 mb 1.39 in35.3 mm 0.00 in0.0 mm 1.39 in35.3 mm
05:17 AM 61.5°F16.4°C 56.0°F13.3°C 82% 1.8 mph NW2.9 kmh NW 2.7 mph4.3 kmh 30.02 in1016.6 mb 1.39 in35.3 mm 0.00 in0.0 mm 1.39 in35.3 mm
05:16 AM 61.5°F16.4°C 56.0°F13.3°C 82% 2.7 mph E4.3 kmh E 4.6 mph7.4 kmh 30.02 in1016.6 mb 1.39 in35.3 mm 0.00 in0.0 mm 1.39 in35.3 mm
05:15 AM 61.5°F16.4°C 56.0°F13.3°C 82% 2.7 mph 4.3 kmh 4.6 mph7.4 kmh 30.02 in1016.6 mb 1.39 in35.3 mm 0.00 in0.0 mm 1.39 in35.3 mm
05:14 AM 61.5°F16.4°C 56.0°F13.3°C 82% 2.7 mph E4.3 kmh E 4.1 mph6.6 kmh 30.02 in1016.6 mb 1.39 in35.3 mm 0.00 in0.0 mm 1.39 in35.3 mm
05:13 AM 61.5°F16.4°C 56.0°F13.3°C 82% 2.7 mph 4.3 kmh 4.1 mph6.6 kmh 30.02 in1016.6 mb 1.39 in35.3 mm 0.00 in0.0 mm 1.39 in35.3 mm
05:12 AM 61.5°F16.4°C 56.0°F13.3°C 82% 2.7 mph 4.3 kmh 3.7 mph6.0 kmh 30.02 in1016.6 mb 1.39 in35.3 mm 0.00 in0.0 mm 1.39 in35.3 mm
05:11 AM 61.5°F16.4°C 56.0°F13.3°C 82% 2.3 mph E3.7 kmh E 3.7 mph6.0 kmh 30.02 in1016.6 mb 1.39 in35.3 mm 0.00 in0.0 mm 1.39 in35.3 mm
05:10 AM 61.5°F16.4°C 56.0°F13.3°C 82% 2.7 mph W4.3 kmh W 4.6 mph7.4 kmh 30.02 in1016.6 mb 1.39 in35.3 mm 0.00 in0.0 mm 1.39 in35.3 mm
05:09 AM 61.5°F16.4°C 56.0°F13.3°C 82% 2.7 mph NW4.3 kmh NW 4.1 mph6.6 kmh 30.02 in1016.6 mb 1.39 in35.3 mm 0.00 in0.0 mm 1.39 in35.3 mm
05:08 AM 61.5°F16.4°C 56.0°F13.3°C 82% 2.7 mph W4.3 kmh W 4.1 mph6.6 kmh 30.02 in1016.6 mb 1.39 in35.3 mm 0.00 in0.0 mm 1.39 in35.3 mm
05:00 AM 61.5°F16.4°C 56.0°F13.3°C 82% 2.7 mph NW4.3 kmh NW 5.0 mph8.0 kmh 30.02 in1016.6 mb 1.39 in35.3 mm 0.00 in0.0 mm 1.39 in35.3 mm
04:59 AM 61.5°F16.4°C 56.0°F13.3°C 82% 2.7 mph W4.3 kmh W 4.1 mph6.6 kmh 30.02 in1016.6 mb 1.39 in35.3 mm 0.00 in0.0 mm 1.39 in35.3 mm
04:58 AM 61.5°F16.4°C 56.0°F13.3°C 82% 2.7 mph W4.3 kmh W 4.1 mph6.6 kmh 30.02 in1016.6 mb 1.39 in35.3 mm 0.00 in0.0 mm 1.39 in35.3 mm
04:57 AM 61.5°F16.4°C 56.0°F13.3°C 82% 2.7 mph 4.3 kmh 4.1 mph6.6 kmh 30.02 in1016.6 mb 1.39 in35.3 mm 0.00 in0.0 mm 1.39 in35.3 mm
04:56 AM 61.5°F16.4°C 56.0°F13.3°C 82% 3.2 mph 5.1 kmh 4.6 mph7.4 kmh 30.02 in1016.6 mb 1.39 in35.3 mm 0.00 in0.0 mm 1.39 in35.3 mm
04:55 AM 61.5°F16.4°C 56.0°F13.3°C 82% 2.7 mph 4.3 kmh 4.6 mph7.4 kmh 30.02 in1016.6 mb 1.39 in35.3 mm 0.00 in0.0 mm 1.39 in35.3 mm
04:54 AM 61.5°F16.4°C 56.0°F13.3°C 82% 2.3 mph 3.7 kmh 3.2 mph5.1 kmh 30.02 in1016.6 mb 1.39 in35.3 mm 0.00 in0.0 mm 1.39 in35.3 mm
04:53 AM 61.5°F16.4°C 56.0°F13.3°C 82% 2.3 mph 3.7 kmh 3.2 mph5.1 kmh 30.02 in1016.6 mb 1.39 in35.3 mm 0.00 in0.0 mm 1.39 in35.3 mm
04:52 AM 61.5°F16.4°C 56.0°F13.3°C 82% 3.2 mph 5.1 kmh 4.1 mph6.6 kmh 30.02 in1016.6 mb 1.39 in35.3 mm 0.00 in0.0 mm 1.39 in35.3 mm
04:51 AM 61.5°F16.4°C 56.0°F13.3°C 82% 3.2 mph 5.1 kmh 4.1 mph6.6 kmh 30.02 in1016.6 mb 1.39 in35.3 mm 0.00 in0.0 mm 1.39 in35.3 mm
04:50 AM 61.5°F16.4°C 56.0°F13.3°C 82% 1.8 mph E2.9 kmh E 4.1 mph6.6 kmh 30.02 in1016.6 mb 1.39 in35.3 mm 0.00 in0.0 mm 1.39 in35.3 mm
04:49 AM 61.5°F16.4°C 56.0°F13.3°C 82% 2.3 mph W3.7 kmh W 3.2 mph5.1 kmh 30.02 in1016.6 mb 1.39 in35.3 mm 0.00 in0.0 mm 1.39 in35.3 mm
04:48 AM 61.5°F16.4°C 56.0°F13.3°C 82% 2.7 mph E4.3 kmh E 4.1 mph6.6 kmh 30.02 in1016.6 mb 1.39 in35.3 mm 0.00 in0.0 mm 1.39 in35.3 mm
04:47 AM 61.5°F16.4°C 56.0°F13.3°C 82% 3.2 mph 5.1 kmh 4.6 mph7.4 kmh 30.02 in1016.6 mb 1.39 in35.3 mm 0.00 in0.0 mm 1.39 in35.3 mm
04:46 AM 61.5°F16.4°C 56.0°F13.3°C 82% 2.3 mph W3.7 kmh W 4.6 mph7.4 kmh 30.02 in1016.6 mb 1.39 in35.3 mm 0.00 in0.0 mm 1.39 in35.3 mm
04:45 AM 61.5°F16.4°C 56.0°F13.3°C 82% 2.7 mph 4.3 kmh 4.1 mph6.6 kmh 30.02 in1016.6 mb 1.39 in35.3 mm 0.00 in0.0 mm 1.39 in35.3 mm
04:44 AM 61.5°F16.4°C 56.0°F13.3°C 82% 2.3 mph 3.7 kmh 4.1 mph6.6 kmh 30.02 in1016.6 mb 1.39 in35.3 mm 0.00 in0.0 mm 1.39 in35.3 mm
04:43 AM 61.5°F16.4°C 56.0°F13.3°C 82% 2.3 mph 3.7 kmh 3.2 mph5.1 kmh 30.02 in1016.6 mb 1.39 in35.3 mm 0.00 in0.0 mm 1.39 in35.3 mm
04:42 AM 61.5°F16.4°C 56.0°F13.3°C 82% 1.8 mph 2.9 kmh 2.7 mph4.3 kmh 30.02 in1016.6 mb 1.39 in35.3 mm 0.00 in0.0 mm 1.39 in35.3 mm
04:41 AM 61.5°F16.4°C 56.0°F13.3°C 82% 2.3 mph 3.7 kmh 3.7 mph6.0 kmh 30.02 in1016.6 mb 1.39 in35.3 mm 0.00 in0.0 mm 1.39 in35.3 mm
04:40 AM 61.5°F16.4°C 56.0°F13.3°C 82% 2.3 mph 3.7 kmh 3.7 mph6.0 kmh 30.02 in1016.6 mb 1.39 in35.3 mm 0.00 in0.0 mm 1.39 in35.3 mm
04:39 AM 61.5°F16.4°C 56.0°F13.3°C 82% 2.3 mph WNW3.7 kmh WNW 3.2 mph5.1 kmh 30.02 in1016.6 mb 1.39 in35.3 mm 0.00 in0.0 mm 1.39 in35.3 mm
04:38 AM 61.5°F16.4°C 56.3°F13.5°C 83% 2.7 mph 4.3 kmh 4.6 mph7.4 kmh 30.02 in1016.6 mb 1.39 in35.3 mm 0.00 in0.0 mm 1.39 in35.3 mm
04:37 AM 61.5°F16.4°C 56.3°F13.5°C 83% 3.2 mph 5.1 kmh 3.7 mph6.0 kmh 30.02 in1016.6 mb 1.39 in35.3 mm 0.00 in0.0 mm 1.39 in35.3 mm
04:36 AM 61.5°F16.4°C 56.3°F13.5°C 83% 2.7 mph 4.3 kmh 3.7 mph6.0 kmh 30.02 in1016.6 mb 1.39 in35.3 mm 0.00 in0.0 mm 1.39 in35.3 mm
04:35 AM 61.5°F16.4°C 56.3°F13.5°C 83% 2.3 mph 3.7 kmh 4.1 mph6.6 kmh 30.02 in1016.6 mb 1.39 in35.3 mm 0.00 in0.0 mm 1.39 in35.3 mm
04:34 AM 61.5°F16.4°C 56.3°F13.5°C 83% 2.3 mph 3.7 kmh 3.7 mph6.0 kmh 30.02 in1016.6 mb 1.39 in35.3 mm 0.00 in0.0 mm 1.39 in35.3 mm
04:33 AM 61.5°F16.4°C 56.3°F13.5°C 83% 2.3 mph 3.7 kmh 4.6 mph7.4 kmh 30.02 in1016.6 mb 1.39 in35.3 mm 0.00 in0.0 mm 1.39 in35.3 mm
04:32 AM 61.3°F16.3°C 56.1°F13.4°C 83% 2.3 mph WNW3.7 kmh WNW 3.7 mph6.0 kmh 30.02 in1016.6 mb 1.39 in35.3 mm 0.00 in0.0 mm 1.39 in35.3 mm
04:31 AM 61.3°F16.3°C 56.1°F13.4°C 83% 3.7 mph WNW6.0 kmh WNW 5.0 mph8.0 kmh 30.02 in1016.6 mb 1.39 in35.3 mm 0.00 in0.0 mm 1.39 in35.3 mm
04:30 AM 61.3°F16.3°C 56.1°F13.4°C 83% 3.7 mph 6.0 kmh 4.6 mph7.4 kmh 30.02 in1016.6 mb 1.39 in35.3 mm 0.00 in0.0 mm 1.39 in35.3 mm
04:29 AM 61.3°F16.3°C 56.1°F13.4°C 83% 3.2 mph 5.1 kmh 4.1 mph6.6 kmh 30.02 in1016.6 mb 1.39 in35.3 mm 0.00 in0.0 mm 1.39 in35.3 mm
04:28 AM 61.3°F16.3°C 56.1°F13.4°C 83% 3.2 mph 5.1 kmh 4.6 mph7.4 kmh 30.02 in1016.6 mb 1.39 in35.3 mm 0.00 in0.0 mm 1.39 in35.3 mm
04:27 AM 61.3°F16.3°C 56.1°F13.4°C 83% 3.7 mph NW6.0 kmh NW 5.0 mph8.0 kmh 30.02 in1016.6 mb 1.39 in35.3 mm 0.00 in0.0 mm 1.39 in35.3 mm
04:26 AM 61.3°F16.3°C 56.1°F13.4°C 83% 2.7 mph W4.3 kmh W 3.7 mph6.0 kmh 30.02 in1016.6 mb 1.39 in35.3 mm 0.00 in0.0 mm 1.39 in35.3 mm
04:25 AM 61.3°F16.3°C 56.1°F13.4°C 83% 3.2 mph W5.1 kmh W 5.0 mph8.0 kmh 30.02 in1016.6 mb 1.39 in35.3 mm 0.00 in0.0 mm 1.39 in35.3 mm
04:24 AM 61.3°F16.3°C 56.1°F13.4°C 83% 3.2 mph 5.1 kmh 4.6 mph7.4 kmh 30.02 in1016.6 mb 1.39 in35.3 mm 0.00 in0.0 mm 1.39 in35.3 mm
04:23 AM 61.3°F16.3°C 56.1°F13.4°C 83% 2.7 mph W4.3 kmh W 3.7 mph6.0 kmh 30.02 in1016.6 mb 1.39 in35.3 mm 0.00 in0.0 mm 1.39 in35.3 mm
04:22 AM 61.3°F16.3°C 56.1°F13.4°C 83% 2.7 mph 4.3 kmh 4.1 mph6.6 kmh 30.02 in1016.6 mb 1.39 in35.3 mm 0.00 in0.0 mm 1.39 in35.3 mm
04:21 AM 61.3°F16.3°C 56.1°F13.4°C 83% 3.2 mph E5.1 kmh E 4.1 mph6.6 kmh 30.02 in1016.6 mb 1.39 in35.3 mm 0.00 in0.0 mm 1.39 in35.3 mm
04:20 AM 61.3°F16.3°C 56.1°F13.4°C 83% 2.7 mph 4.3 kmh 4.1 mph6.6 kmh 30.02 in1016.6 mb 1.39 in35.3 mm 0.00 in0.0 mm 1.39 in35.3 mm
04:19 AM 61.3°F16.3°C 56.1°F13.4°C 83% 2.3 mph 3.7 kmh 3.2 mph5.1 kmh 30.02 in1016.6 mb 1.39 in35.3 mm 0.00 in0.0 mm 1.39 in35.3 mm
04:18 AM 61.3°F16.3°C 55.8°F13.2°C 82% 1.8 mph WNW2.9 kmh WNW 3.2 mph5.1 kmh 30.02 in1016.6 mb 1.39 in35.3 mm 0.00 in0.0 mm 1.39 in35.3 mm
04:17 AM 61.3°F16.3°C 55.8°F13.2°C 82% 1.8 mph NW2.9 kmh NW 3.2 mph5.1 kmh 30.02 in1016.6 mb 1.39 in35.3 mm 0.00 in0.0 mm 1.39 in35.3 mm
04:16 AM 61.3°F16.3°C 55.8°F13.2°C 82% 1.8 mph W2.9 kmh W 2.7 mph4.3 kmh 30.02 in1016.6 mb 1.39 in35.3 mm 0.00 in0.0 mm 1.39 in35.3 mm
04:15 AM 61.5°F16.4°C 56.0°F13.3°C 82% 1.8 mph E2.9 kmh E 3.2 mph5.1 kmh 30.01 in1016.3 mb 1.39 in35.3 mm 0.00 in0.0 mm 1.39 in35.3 mm
04:14 AM 61.5°F16.4°C 56.0°F13.3°C 82% 1.8 mph E2.9 kmh E 3.2 mph5.1 kmh 30.02 in1016.6 mb 1.39 in35.3 mm 0.00 in0.0 mm 1.39 in35.3 mm
04:13 AM 61.5°F16.4°C 56.0°F13.3°C 82% 1.8 mph E2.9 kmh E 2.7 mph4.3 kmh 30.01 in1016.3 mb 1.39 in35.3 mm 0.00 in0.0 mm 1.39 in35.3 mm
04:12 AM 61.5°F16.4°C 56.0°F13.3°C 82% 2.7 mph 4.3 kmh 3.2 mph5.1 kmh 30.02 in1016.6 mb 1.39 in35.3 mm 0.00 in0.0 mm 1.39 in35.3 mm
04:11 AM 61.7°F16.5°C 56.2°F13.4°C 82% 2.3 mph 3.7 kmh 3.2 mph5.1 kmh 30.01 in1016.3 mb 1.39 in35.3 mm 0.00 in0.0 mm 1.39 in35.3 mm
04:10 AM 61.7°F16.5°C 56.2°F13.4°C 82% 2.3 mph 3.7 kmh 3.2 mph5.1 kmh 30.02 in1016.6 mb 1.39 in35.3 mm 0.00 in0.0 mm 1.39 in35.3 mm
04:09 AM 61.9°F16.6°C 56.3°F13.5°C 82% 2.3 mph W3.7 kmh W 3.2 mph5.1 kmh 30.01 in1016.3 mb 1.39 in35.3 mm 0.00 in0.0 mm 1.39 in35.3 mm
04:08 AM 61.7°F16.5°C 56.2°F13.4°C 82% 2.7 mph 4.3 kmh 3.7 mph6.0 kmh 30.01 in1016.3 mb 1.39 in35.3 mm 0.00 in0.0 mm 1.39 in35.3 mm
04:07 AM 61.9°F16.6°C 56.3°F13.5°C 82% 3.2 mph W5.1 kmh W 4.6 mph7.4 kmh 30.01 in1016.3 mb 1.39 in35.3 mm 0.00 in0.0 mm 1.39 in35.3 mm
04:06 AM 61.9°F16.6°C 56.3°F13.5°C 82% 3.2 mph W5.1 kmh W 4.1 mph6.6 kmh 30.01 in1016.3 mb 1.39 in35.3 mm 0.00 in0.0 mm 1.39 in35.3 mm
04:05 AM 61.9°F16.6°C 56.3°F13.5°C 82% 3.2 mph WNW5.1 kmh WNW 4.1 mph6.6 kmh 30.01 in1016.3 mb 1.39 in35.3 mm 0.00 in0.0 mm 1.39 in35.3 mm
04:04 AM 61.9°F16.6°C 56.3°F13.5°C 82% 3.2 mph W5.1 kmh W 4.6 mph7.4 kmh 30.01 in1016.3 mb 1.39 in35.3 mm 0.00 in0.0 mm 1.39 in35.3 mm
04:03 AM 62.1°F16.7°C 56.5°F13.6°C 82% 3.7 mph W6.0 kmh W 4.6 mph7.4 kmh 30.01 in1016.3 mb 1.39 in35.3 mm 0.00 in0.0 mm 1.39 in35.3 mm
04:02 AM 62.1°F16.7°C 56.5°F13.6°C 82% 2.3 mph W3.7 kmh W 3.7 mph6.0 kmh 30.01 in1016.3 mb 1.39 in35.3 mm 0.00 in0.0 mm 1.39 in35.3 mm
04:01 AM 62.1°F16.7°C 56.5°F13.6°C 82% 2.7 mph W4.3 kmh W 4.1 mph6.6 kmh 30.01 in1016.3 mb 1.39 in35.3 mm 0.00 in0.0 mm 1.39 in35.3 mm
04:00 AM 62.1°F16.7°C 56.5°F13.6°C 82% 3.2 mph 5.1 kmh 4.1 mph6.6 kmh 30.02 in1016.6 mb 1.39 in35.3 mm 0.00 in0.0 mm 1.39 in35.3 mm
03:59 AM 61.9°F16.6°C 56.3°F13.5°C 82% 2.7 mph 4.3 kmh 4.1 mph6.6 kmh 30.01 in1016.3 mb 1.39 in35.3 mm 0.00 in0.0 mm 1.39 in35.3 mm
03:58 AM 61.9°F16.6°C 56.3°F13.5°C 82% 2.7 mph 4.3 kmh 4.1 mph6.6 kmh 30.01 in1016.3 mb 1.39 in35.3 mm 0.00 in0.0 mm 1.39 in35.3 mm
03:57 AM 61.9°F16.6°C 56.3°F13.5°C 82% 2.3 mph W3.7 kmh W 3.2 mph5.1 kmh 30.02 in1016.6 mb 1.39 in35.3 mm 0.00 in0.0 mm 1.39 in35.3 mm
03:56 AM 61.9°F16.6°C 56.3°F13.5°C 82% 2.7 mph E4.3 kmh E 3.7 mph6.0 kmh 30.02 in1016.6 mb 1.39 in35.3 mm 0.00 in0.0 mm 1.39 in35.3 mm
03:55 AM 61.9°F16.6°C 56.3°F13.5°C 82% 1.8 mph E2.9 kmh E 2.7 mph4.3 kmh 30.02 in1016.6 mb 1.39 in35.3 mm 0.00 in0.0 mm 1.39 in35.3 mm
03:54 AM 61.7°F16.5°C 56.2°F13.4°C 82% 1.8 mph 2.9 kmh 2.3 mph3.7 kmh 30.02 in1016.6 mb 1.39 in35.3 mm 0.00 in0.0 mm 1.39 in35.3 mm
03:53 AM 61.7°F16.5°C 56.2°F13.4°C 82% 2.7 mph E4.3 kmh E 3.2 mph5.1 kmh 30.02 in1016.6 mb 1.39 in35.3 mm 0.00 in0.0 mm 1.39 in35.3 mm
03:52 AM 61.7°F16.5°C 56.2°F13.4°C 82% 1.8 mph WNW2.9 kmh WNW 2.7 mph4.3 kmh 30.02 in1016.6 mb 1.39 in35.3 mm 0.00 in0.0 mm 1.39 in35.3 mm
03:51 AM 61.7°F16.5°C 56.2°F13.4°C 82% 1.4 mph E2.3 kmh E 2.3 mph3.7 kmh 30.02 in1016.6 mb 1.39 in35.3 mm 0.00 in0.0 mm 1.39 in35.3 mm
03:50 AM 61.7°F16.5°C 56.2°F13.4°C 82% 1.8 mph E2.9 kmh E 2.7 mph4.3 kmh 30.02 in1016.6 mb 1.39 in35.3 mm 0.00 in0.0 mm 1.39 in35.3 mm
03:49 AM 61.7°F16.5°C 56.2°F13.4°C 82% 2.3 mph E3.7 kmh E 2.7 mph4.3 kmh 30.02 in1016.6 mb 1.39 in35.3 mm 0.00 in0.0 mm 1.39 in35.3 mm
03:48 AM 61.7°F16.5°C 56.2°F13.4°C 82% 1.8 mph NW2.9 kmh NW 2.7 mph4.3 kmh 30.02 in1016.6 mb 1.39 in35.3 mm 0.00 in0.0 mm 1.39 in35.3 mm
03:47 AM 61.7°F16.5°C 56.2°F13.4°C 82% 2.3 mph NW3.7 kmh NW 3.2 mph5.1 kmh 30.02 in1016.6 mb 1.39 in35.3 mm 0.00 in0.0 mm 1.39 in35.3 mm
03:46 AM 61.7°F16.5°C 56.2°F13.4°C 82% 1.8 mph W2.9 kmh W 3.2 mph5.1 kmh 30.02 in1016.6 mb 1.39 in35.3 mm 0.00 in0.0 mm 1.39 in35.3 mm
03:45 AM 61.9°F16.6°C 56.3°F13.5°C 82% 1.8 mph W2.9 kmh W 2.7 mph4.3 kmh 30.02 in1016.6 mb 1.39 in35.3 mm 0.00 in0.0 mm 1.39 in35.3 mm
03:44 AM 61.9°F16.6°C 56.3°F13.5°C 82% 2.3 mph 3.7 kmh 2.7 mph4.3 kmh 30.02 in1016.6 mb 1.39 in35.3 mm 0.00 in0.0 mm 1.39 in35.3 mm
03:43 AM 61.9°F16.6°C 56.3°F13.5°C 82% 1.8 mph WNW2.9 kmh WNW 3.2 mph5.1 kmh 30.02 in1016.6 mb 1.39 in35.3 mm 0.00 in0.0 mm 1.39 in35.3 mm
03:42 AM 61.9°F16.6°C 56.3°F13.5°C 82% 1.8 mph 2.9 kmh 3.2 mph5.1 kmh 30.02 in1016.6 mb 1.39 in35.3 mm 0.00 in0.0 mm 1.39 in35.3 mm
03:41 AM 61.9°F16.6°C 56.3°F13.5°C 82% 1.4 mph E2.3 kmh E 2.7 mph4.3 kmh 30.02 in1016.6 mb 1.39 in35.3 mm 0.00 in0.0 mm 1.39 in35.3 mm
03:40 AM 61.9°F16.6°C 56.3°F13.5°C 82% 2.7 mph 4.3 kmh 4.1 mph6.6 kmh 30.01 in1016.3 mb 1.39 in35.3 mm 0.00 in0.0 mm 1.39 in35.3 mm
03:39 AM 61.9°F16.6°C 56.3°F13.5°C 82% 2.3 mph 3.7 kmh 3.7 mph6.0 kmh 30.02 in1016.6 mb 1.39 in35.3 mm 0.00 in0.0 mm 1.39 in35.3 mm
03:38 AM 61.9°F16.6°C 56.3°F13.5°C 82% 3.2 mph 5.1 kmh 4.6 mph7.4 kmh 30.01 in1016.3 mb 1.39 in35.3 mm 0.00 in0.0 mm 1.39 in35.3 mm
03:37 AM 61.9°F16.6°C 56.3°F13.5°C 82% 2.7 mph 4.3 kmh 3.7 mph6.0 kmh 30.01 in1016.3 mb 1.39 in35.3 mm 0.00 in0.0 mm 1.39 in35.3 mm
03:36 AM 61.9°F16.6°C 56.3°F13.5°C 82% 3.2 mph WNW5.1 kmh WNW 4.6 mph7.4 kmh 30.01 in1016.3 mb 1.39 in35.3 mm 0.00 in0.0 mm 1.39 in35.3 mm
03:35 AM 61.9°F16.6°C 56.3°F13.5°C 82% 3.7 mph W6.0 kmh W 4.6 mph7.4 kmh 30.01 in1016.3 mb 1.39 in35.3 mm 0.00 in0.0 mm 1.39 in35.3 mm
03:34 AM 61.9°F16.6°C 56.3°F13.5°C 82% 3.7 mph W6.0 kmh W 5.5 mph8.9 kmh 30.01 in1016.3 mb 1.39 in35.3 mm 0.00 in0.0 mm 1.39 in35.3 mm
03:33 AM 61.9°F16.6°C 56.3°F13.5°C 82% 3.2 mph 5.1 kmh 5.0 mph8.0 kmh 30.01 in1016.3 mb 1.39 in35.3 mm 0.00 in0.0 mm 1.39 in35.3 mm
03:32 AM 61.9°F16.6°C 56.3°F13.5°C 82% 2.7 mph 4.3 kmh 3.7 mph6.0 kmh 30.01 in1016.3 mb 1.39 in35.3 mm 0.00 in0.0 mm 1.39 in35.3 mm
03:31 AM 61.9°F16.6°C 56.0°F13.3°C 81% 3.7 mph 6.0 kmh 5.0 mph8.0 kmh 30.01 in1016.3 mb 1.39 in35.3 mm 0.00 in0.0 mm 1.39 in35.3 mm
03:30 AM 61.9°F16.6°C 56.0°F13.3°C 81% 3.7 mph 6.0 kmh 4.6 mph7.4 kmh 30.01 in1016.3 mb 1.39 in35.3 mm 0.00 in0.0 mm 1.39 in35.3 mm
03:29 AM 61.9°F16.6°C 56.0°F13.3°C 81% 3.2 mph 5.1 kmh 4.6 mph7.4 kmh 30.01 in1016.3 mb 1.39 in35.3 mm 0.00 in0.0 mm 1.39 in35.3 mm
03:28 AM 61.9°F16.6°C 56.0°F13.3°C 81% 3.2 mph 5.1 kmh 4.1 mph6.6 kmh 30.01 in1016.3 mb 1.39 in35.3 mm 0.00 in0.0 mm 1.39 in35.3 mm
03:27 AM 62.1°F16.7°C 56.2°F13.4°C 81% 2.7 mph W4.3 kmh W 4.1 mph6.6 kmh 30.01 in1016.3 mb 1.39 in35.3 mm 0.00 in0.0 mm 1.39 in35.3 mm
03:26 AM 62.1°F16.7°C 56.2°F13.4°C 81% 4.1 mph NW6.6 kmh NW 4.6 mph7.4 kmh 30.01 in1016.3 mb 1.39 in35.3 mm 0.00 in0.0 mm 1.39 in35.3 mm
03:25 AM 62.1°F16.7°C 56.2°F13.4°C 81% 3.7 mph WNW6.0 kmh WNW 4.6 mph7.4 kmh 30.02 in1016.6 mb 1.39 in35.3 mm 0.00 in0.0 mm 1.39 in35.3 mm
03:24 AM 62.1°F16.7°C 56.2°F13.4°C 81% 3.7 mph 6.0 kmh 4.6 mph7.4 kmh 30.02 in1016.6 mb 1.39 in35.3 mm 0.00 in0.0 mm 1.39 in35.3 mm
03:23 AM 62.1°F16.7°C 56.2°F13.4°C 81% 2.3 mph NW3.7 kmh NW 3.7 mph6.0 kmh 30.02 in1016.6 mb 1.39 in35.3 mm 0.00 in0.0 mm 1.39 in35.3 mm
03:22 AM 62.2°F16.8°C 56.3°F13.5°C 81% 2.7 mph WNW4.3 kmh WNW 4.1 mph6.6 kmh 30.02 in1016.6 mb 1.39 in35.3 mm 0.00 in0.0 mm 1.39 in35.3 mm
03:21 AM 62.2°F16.8°C 56.3°F13.5°C 81% 3.2 mph NW5.1 kmh NW 4.1 mph6.6 kmh 30.02 in1016.6 mb 1.39 in35.3 mm 0.00 in0.0 mm 1.39 in35.3 mm
03:20 AM 62.2°F16.8°C 56.3°F13.5°C 81% 3.7 mph 6.0 kmh 4.6 mph7.4 kmh 30.02 in1016.6 mb 1.39 in35.3 mm 0.00 in0.0 mm 1.39 in35.3 mm
03:19 AM 62.2°F16.8°C 56.3°F13.5°C 81% 2.3 mph E3.7 kmh E 4.1 mph6.6 kmh 30.02 in1016.6 mb 1.39 in35.3 mm 0.00 in0.0 mm 1.39 in35.3 mm
03:18 AM 62.2°F16.8°C 56.3°F13.5°C 81% 3.2 mph E5.1 kmh E 4.1 mph6.6 kmh 30.02 in1016.6 mb 1.39 in35.3 mm 0.00 in0.0 mm 1.39 in35.3 mm
03:17 AM 62.2°F16.8°C 56.3°F13.5°C 81% 2.7 mph W4.3 kmh W 5.0 mph8.0 kmh 30.02 in1016.6 mb 1.39 in35.3 mm 0.00 in0.0 mm 1.39 in35.3 mm
03:16 AM 62.2°F16.8°C 56.3°F13.5°C 81% 3.2 mph E5.1 kmh E 4.6 mph7.4 kmh 30.02 in1016.6 mb 1.39 in35.3 mm 0.00 in0.0 mm 1.39 in35.3 mm
03:15 AM 62.2°F16.8°C 56.0°F13.3°C 80% 3.7 mph W6.0 kmh W 5.0 mph8.0 kmh 30.01 in1016.3 mb 1.39 in35.3 mm 0.00 in0.0 mm 1.39 in35.3 mm
03:14 AM 62.4°F16.9°C 56.2°F13.4°C 80% 3.2 mph 5.1 kmh 5.0 mph8.0 kmh 30.02 in1016.6 mb 1.39 in35.3 mm 0.00 in0.0 mm 1.39 in35.3 mm
03:13 AM 62.4°F16.9°C 56.2°F13.4°C 80% 3.7 mph 6.0 kmh 4.1 mph6.6 kmh 30.02 in1016.6 mb 1.39 in35.3 mm 0.00 in0.0 mm 1.39 in35.3 mm
03:12 AM 62.4°F16.9°C 56.2°F13.4°C 80% 3.7 mph W6.0 kmh W 5.0 mph8.0 kmh 30.02 in1016.6 mb 1.39 in35.3 mm 0.00 in0.0 mm 1.39 in35.3 mm
03:11 AM 62.6°F17.0°C 56.0°F13.3°C 79% 2.7 mph W4.3 kmh W 4.1 mph6.6 kmh 30.02 in1016.6 mb 1.39 in35.3 mm 0.00 in0.0 mm 1.39 in35.3 mm
03:10 AM 62.6°F17.0°C 56.0°F13.3°C 79% 2.7 mph 4.3 kmh 4.1 mph6.6 kmh 30.02 in1016.6 mb 1.39 in35.3 mm 0.00 in0.0 mm 1.39 in35.3 mm
03:09 AM 62.6°F17.0°C 56.0°F13.3°C 79% 2.7 mph W4.3 kmh W 3.7 mph6.0 kmh 30.02 in1016.6 mb 1.39 in35.3 mm 0.00 in0.0 mm 1.39 in35.3 mm
03:08 AM 62.6°F17.0°C 56.0°F13.3°C 79% 2.7 mph NW4.3 kmh NW 4.1 mph6.6 kmh 30.02 in1016.6 mb 1.39 in35.3 mm 0.00 in0.0 mm 1.39 in35.3 mm
02:59 AM 62.6°F17.0°C 56.0°F13.3°C 79% 3.2 mph W5.1 kmh W 4.6 mph7.4 kmh 30.02 in1016.6 mb 1.39 in35.3 mm 0.00 in0.0 mm 1.39 in35.3 mm
02:58 AM 62.6°F17.0°C 56.0°F13.3°C 79% 2.7 mph 4.3 kmh 4.1 mph6.6 kmh 30.02 in1016.6 mb 1.39 in35.3 mm 0.00 in0.0 mm 1.39 in35.3 mm
02:57 AM 62.6°F17.0°C 56.0°F13.3°C 79% 3.2 mph 5.1 kmh 4.1 mph6.6 kmh 30.02 in1016.6 mb 1.39 in35.3 mm 0.00 in0.0 mm 1.39 in35.3 mm
02:56 AM 62.6°F17.0°C 56.0°F13.3°C 79% 1.8 mph W2.9 kmh W 2.7 mph4.3 kmh 30.02 in1016.6 mb 1.39 in35.3 mm 0.00 in0.0 mm 1.39 in35.3 mm
02:55 AM 62.6°F17.0°C 56.0°F13.3°C 79% 2.3 mph 3.7 kmh 4.1 mph6.6 kmh 30.02 in1016.6 mb 1.39 in35.3 mm 0.00 in0.0 mm 1.39 in35.3 mm
02:54 AM 62.6°F17.0°C 56.0°F13.3°C 79% 2.3 mph 3.7 kmh 4.1 mph6.6 kmh 30.03 in1016.9 mb 1.39 in35.3 mm 0.00 in0.0 mm 1.39 in35.3 mm
02:53 AM 62.6°F17.0°C 56.0°F13.3°C 79% 2.7 mph 4.3 kmh 3.7 mph6.0 kmh 30.03 in1016.9 mb 1.39 in35.3 mm 0.00 in0.0 mm 1.39 in35.3 mm
02:52 AM 62.8°F17.1°C 56.2°F13.4°C 79% 3.2 mph 5.1 kmh 4.6 mph7.4 kmh 30.02 in1016.6 mb 1.39 in35.3 mm 0.00 in0.0 mm 1.39 in35.3 mm
02:51 AM 62.8°F17.1°C 56.2°F13.4°C 79% 3.2 mph 5.1 kmh 4.6 mph7.4 kmh 30.03 in1016.9 mb 1.39 in35.3 mm 0.00 in0.0 mm 1.39 in35.3 mm
02:50 AM 62.8°F17.1°C 56.2°F13.4°C 79% 2.7 mph 4.3 kmh 3.2 mph5.1 kmh 30.02 in1016.6 mb 1.39 in35.3 mm 0.00 in0.0 mm 1.39 in35.3 mm
02:49 AM 62.8°F17.1°C 56.2°F13.4°C 79% 3.2 mph 5.1 kmh 4.6 mph7.4 kmh 30.02 in1016.6 mb 1.39 in35.3 mm 0.00 in0.0 mm 1.39 in35.3 mm
02:48 AM 62.8°F17.1°C 56.2°F13.4°C 79% 2.3 mph 3.7 kmh 3.7 mph6.0 kmh 30.02 in1016.6 mb 1.39 in35.3 mm 0.00 in0.0 mm 1.39 in35.3 mm
02:47 AM 62.8°F17.1°C 56.2°F13.4°C 79% 3.2 mph W5.1 kmh W 5.9 mph9.5 kmh 30.02 in1016.6 mb 1.39 in35.3 mm 0.00 in0.0 mm 1.39 in35.3 mm
02:46 AM 62.6°F17.0°C 56.0°F13.3°C 79% 3.7 mph NW6.0 kmh NW 4.6 mph7.4 kmh 30.02 in1016.6 mb 1.39 in35.3 mm 0.00 in0.0 mm 1.39 in35.3 mm
02:45 AM 62.6°F17.0°C 56.0°F13.3°C 79% 3.7 mph 6.0 kmh 5.0 mph8.0 kmh 30.02 in1016.6 mb 1.39 in35.3 mm 0.00 in0.0 mm 1.39 in35.3 mm
02:44 AM 62.6°F17.0°C 56.0°F13.3°C 79% 4.1 mph W6.6 kmh W 5.5 mph8.9 kmh 30.03 in1016.9 mb 1.39 in35.3 mm 0.00 in0.0 mm 1.39 in35.3 mm
02:43 AM 62.6°F17.0°C 56.0°F13.3°C 79% 3.2 mph 5.1 kmh 4.6 mph7.4 kmh 30.03 in1016.9 mb 1.39 in35.3 mm 0.00 in0.0 mm 1.39 in35.3 mm
02:42 AM 62.8°F17.1°C 56.2°F13.4°C 79% 3.2 mph NW5.1 kmh NW 5.9 mph9.5 kmh 30.03 in1016.9 mb 1.39 in35.3 mm 0.00 in0.0 mm 1.39 in35.3 mm
02:41 AM 62.8°F17.1°C 56.2°F13.4°C 79% 2.3 mph NW3.7 kmh NW 3.7 mph6.0 kmh 30.02 in1016.6 mb 1.39 in35.3 mm 0.00 in0.0 mm 1.39 in35.3 mm
02:40 AM 62.8°F17.1°C 56.2°F13.4°C 79% 2.3 mph 3.7 kmh 4.1 mph6.6 kmh 30.03 in1016.9 mb 1.39 in35.3 mm 0.00 in0.0 mm 1.39 in35.3 mm
02:39 AM 62.8°F17.1°C 56.2°F13.4°C 79% 3.2 mph 5.1 kmh 4.6 mph7.4 kmh 30.03 in1016.9 mb 1.39 in35.3 mm 0.00 in0.0 mm 1.39 in35.3 mm
02:38 AM 62.6°F17.0°C 56.0°F13.3°C 79% 3.2 mph E5.1 kmh E 4.1 mph6.6 kmh 30.03 in1016.9 mb 1.39 in35.3 mm 0.00 in0.0 mm 1.39 in35.3 mm
02:37 AM 62.6°F17.0°C 56.0°F13.3°C 79% 2.7 mph 4.3 kmh 4.6 mph7.4 kmh 30.03 in1016.9 mb 1.39 in35.3 mm 0.00 in0.0 mm 1.39 in35.3 mm
02:36 AM 62.6°F17.0°C 56.0°F13.3°C 79% 2.7 mph 4.3 kmh 4.1 mph6.6 kmh 30.03 in1016.9 mb 1.39 in35.3 mm 0.00 in0.0 mm 1.39 in35.3 mm
02:35 AM 62.6°F17.0°C 56.0°F13.3°C 79% 2.7 mph 4.3 kmh 3.7 mph6.0 kmh 30.03 in1016.9 mb 1.39 in35.3 mm 0.00 in0.0 mm 1.39 in35.3 mm
02:34 AM 62.6°F17.0°C 56.0°F13.3°C 79% 2.3 mph 3.7 kmh 2.7 mph4.3 kmh 30.03 in1016.9 mb 1.39 in35.3 mm 0.00 in0.0 mm 1.39 in35.3 mm
02:33 AM 62.6°F17.0°C 56.0°F13.3°C 79% 2.3 mph 3.7 kmh 4.1 mph6.6 kmh 30.03 in1016.9 mb 1.39 in35.3 mm 0.00 in0.0 mm 1.39 in35.3 mm
02:32 AM 62.6°F17.0°C 56.0°F13.3°C 79% 2.7 mph NW4.3 kmh NW 4.6 mph7.4 kmh 30.03 in1016.9 mb 1.39 in35.3 mm 0.00 in0.0 mm 1.39 in35.3 mm
02:31 AM 62.6°F17.0°C 56.3°F13.5°C 80% 2.7 mph WNW4.3 kmh WNW 4.1 mph6.6 kmh 30.03 in1016.9 mb 1.39 in35.3 mm 0.00 in0.0 mm 1.39 in35.3 mm
02:30 AM 62.6°F17.0°C 56.3°F13.5°C 80% 3.7 mph NW6.0 kmh NW 4.6 mph7.4 kmh 30.03 in1016.9 mb 1.39 in35.3 mm 0.00 in0.0 mm 1.39 in35.3 mm
02:29 AM 62.4°F16.9°C 56.5°F13.6°C 81% 2.7 mph 4.3 kmh 4.1 mph6.6 kmh 30.03 in1016.9 mb 1.39 in35.3 mm 0.00 in0.0 mm 1.39 in35.3 mm
02:28 AM 62.4°F16.9°C 56.5°F13.6°C 81% 3.2 mph 5.1 kmh 5.0 mph8.0 kmh 30.03 in1016.9 mb 1.39 in35.3 mm 0.00 in0.0 mm 1.39 in35.3 mm
02:27 AM 62.4°F16.9°C 56.5°F13.6°C 81% 2.3 mph NW3.7 kmh NW 3.2 mph5.1 kmh 30.03 in1016.9 mb 1.39 in35.3 mm 0.00 in0.0 mm 1.39 in35.3 mm
02:26 AM 62.4°F16.9°C 56.5°F13.6°C 81% 2.7 mph W4.3 kmh W 4.1 mph6.6 kmh 30.03 in1016.9 mb 1.39 in35.3 mm 0.00 in0.0 mm 1.39 in35.3 mm
02:25 AM 62.4°F16.9°C 56.5°F13.6°C 81% 2.7 mph NW4.3 kmh NW 4.1 mph6.6 kmh 30.03 in1016.9 mb 1.39 in35.3 mm 0.00 in0.0 mm 1.39 in35.3 mm
02:24 AM 62.4°F16.9°C 56.2°F13.4°C 80% 2.7 mph 4.3 kmh 4.1 mph6.6 kmh 30.03 in1016.9 mb 1.39 in35.3 mm 0.00 in0.0 mm 1.39 in35.3 mm
02:23 AM 62.4°F16.9°C 56.2°F13.4°C 80% 2.7 mph 4.3 kmh 4.1 mph6.6 kmh 30.03 in1016.9 mb 1.39 in35.3 mm 0.00 in0.0 mm 1.39 in35.3 mm
02:22 AM 62.4°F16.9°C 56.2°F13.4°C 80% 2.3 mph 3.7 kmh 3.7 mph6.0 kmh 30.03 in1016.9 mb 1.39 in35.3 mm 0.00 in0.0 mm 1.39 in35.3 mm
02:21 AM 62.4°F16.9°C 56.2°F13.4°C 80% 1.8 mph NW2.9 kmh NW 2.7 mph4.3 kmh 30.03 in1016.9 mb 1.39 in35.3 mm 0.00 in0.0 mm 1.39 in35.3 mm
02:20 AM 62.6°F17.0°C 56.0°F13.3°C 79% 1.4 mph 2.3 kmh 2.3 mph3.7 kmh 30.03 in1016.9 mb 1.39 in35.3 mm 0.00 in0.0 mm 1.39 in35.3 mm
02:19 AM 62.6°F17.0°C 56.0°F13.3°C 79% 0.9 mph 1.4 kmh 1.4 mph2.3 kmh 30.03 in1016.9 mb 1.39 in35.3 mm 0.00 in0.0 mm 1.39 in35.3 mm
02:18 AM 62.6°F17.0°C 56.0°F13.3°C 79% 1.4 mph W2.3 kmh W 2.3 mph3.7 kmh 30.03 in1016.9 mb 1.39 in35.3 mm 0.00 in0.0 mm 1.39 in35.3 mm
02:17 AM 62.6°F17.0°C 56.0°F13.3°C 79% 1.4 mph W2.3 kmh W 2.3 mph3.7 kmh 30.03 in1016.9 mb 1.39 in35.3 mm 0.00 in0.0 mm 1.39 in35.3 mm
02:16 AM 62.6°F17.0°C 56.0°F13.3°C 79% 1.4 mph E2.3 kmh E 2.3 mph3.7 kmh 30.03 in1016.9 mb 1.39 in35.3 mm 0.00 in0.0 mm 1.39 in35.3 mm
02:15 AM 62.6°F17.0°C 56.0°F13.3°C 79% 1.8 mph 2.9 kmh 3.2 mph5.1 kmh 30.04 in1017.3 mb 1.39 in35.3 mm 0.00 in0.0 mm 1.39 in35.3 mm
02:14 AM 62.6°F17.0°C 56.0°F13.3°C 79% 0.9 mph 1.4 kmh 2.3 mph3.7 kmh 30.04 in1017.3 mb 1.39 in35.3 mm 0.00 in0.0 mm 1.39 in35.3 mm
02:13 AM 62.6°F17.0°C 56.0°F13.3°C 79% 2.3 mph E3.7 kmh E 3.2 mph5.1 kmh 30.04 in1017.3 mb 1.39 in35.3 mm 0.00 in0.0 mm 1.39 in35.3 mm
02:12 AM 62.6°F17.0°C 56.0°F13.3°C 79% 1.8 mph 2.9 kmh 2.7 mph4.3 kmh 30.04 in1017.3 mb 1.39 in35.3 mm 0.00 in0.0 mm 1.39 in35.3 mm
02:11 AM 62.6°F17.0°C 56.0°F13.3°C 79% 2.3 mph 3.7 kmh 3.7 mph6.0 kmh 30.04 in1017.3 mb 1.39 in35.3 mm 0.00 in0.0 mm 1.39 in35.3 mm
02:10 AM 62.6°F17.0°C 56.0°F13.3°C 79% 1.8 mph 2.9 kmh 2.7 mph4.3 kmh 30.04 in1017.3 mb 1.39 in35.3 mm 0.00 in0.0 mm 1.39 in35.3 mm
02:09 AM 62.6°F17.0°C 56.0°F13.3°C 79% 1.8 mph 2.9 kmh 2.7 mph4.3 kmh 30.04 in1017.3 mb 1.39 in35.3 mm 0.00 in0.0 mm 1.39 in35.3 mm
02:08 AM 62.6°F17.0°C 56.0°F13.3°C 79% 2.3 mph 3.7 kmh 3.2 mph5.1 kmh 30.04 in1017.3 mb 1.39 in35.3 mm 0.00 in0.0 mm 1.39 in35.3 mm
02:07 AM 62.6°F17.0°C 56.0°F13.3°C 79% 1.8 mph 2.9 kmh 2.3 mph3.7 kmh 30.04 in1017.3 mb 1.39 in35.3 mm 0.00 in0.0 mm 1.39 in35.3 mm
02:06 AM 62.8°F17.1°C 56.2°F13.4°C 79% 2.3 mph 3.7 kmh 3.2 mph5.1 kmh 30.04 in1017.3 mb 1.39 in35.3 mm 0.00 in0.0 mm 1.39 in35.3 mm
02:05 AM 62.8°F17.1°C 56.2°F13.4°C 79% 1.8 mph 2.9 kmh 3.2 mph5.1 kmh 30.04 in1017.3 mb 1.39 in35.3 mm 0.00 in0.0 mm 1.39 in35.3 mm
02:04 AM 62.8°F17.1°C 56.2°F13.4°C 79% 2.3 mph 3.7 kmh 2.7 mph4.3 kmh 30.04 in1017.3 mb 1.39 in35.3 mm 0.00 in0.0 mm 1.39 in35.3 mm
02:03 AM 62.8°F17.1°C 56.2°F13.4°C 79% 1.8 mph 2.9 kmh 2.7 mph4.3 kmh 30.04 in1017.3 mb 1.39 in35.3 mm 0.00 in0.0 mm 1.39 in35.3 mm
02:02 AM 62.8°F17.1°C 56.2°F13.4°C 79% 1.8 mph WNW2.9 kmh WNW 3.2 mph5.1 kmh 30.04 in1017.3 mb 1.39 in35.3 mm 0.00 in0.0 mm 1.39 in35.3 mm
02:01 AM 62.8°F17.1°C 56.2°F13.4°C 79% 2.3 mph W3.7 kmh W 3.2 mph5.1 kmh 30.04 in1017.3 mb 1.39 in35.3 mm 0.00 in0.0 mm 1.39 in35.3 mm
02:00 AM 62.8°F17.1°C 56.2°F13.4°C 79% 1.8 mph 2.9 kmh 3.7 mph6.0 kmh 30.04 in1017.3 mb 1.39 in35.3 mm 0.00 in0.0 mm 1.39 in35.3 mm
01:59 AM 62.8°F17.1°C 56.2°F13.4°C 79% 1.8 mph E2.9 kmh E 3.2 mph5.1 kmh 30.04 in1017.3 mb 1.39 in35.3 mm 0.00 in0.0 mm 1.39 in35.3 mm
01:58 AM 62.8°F17.1°C 56.2°F13.4°C 79% 1.8 mph 2.9 kmh 3.2 mph5.1 kmh 30.04 in1017.3 mb 1.39 in35.3 mm 0.00 in0.0 mm 1.39 in35.3 mm
01:57 AM 62.8°F17.1°C 56.2°F13.4°C 79% 0.9 mph 1.4 kmh 1.8 mph2.9 kmh 30.04 in1017.3 mb 1.39 in35.3 mm 0.00 in0.0 mm 1.39 in35.3 mm
01:56 AM 62.8°F17.1°C 56.2°F13.4°C 79% 0.9 mph 1.4 kmh 1.8 mph2.9 kmh 30.04 in1017.3 mb 1.39 in35.3 mm 0.00 in0.0 mm 1.39 in35.3 mm
01:55 AM 62.8°F17.1°C 56.2°F13.4°C 79% 1.4 mph 2.3 kmh 2.7 mph4.3 kmh 30.04 in1017.3 mb 1.39 in35.3 mm 0.00 in0.0 mm 1.39 in35.3 mm
01:54 AM 62.8°F17.1°C 56.2°F13.4°C 79% 1.4 mph E2.3 kmh E 2.3 mph3.7 kmh 30.04 in1017.3 mb 1.39 in35.3 mm 0.00 in0.0 mm 1.39 in35.3 mm
01:53 AM 62.8°F17.1°C 56.2°F13.4°C 79% 1.4 mph NW2.3 kmh NW 2.7 mph4.3 kmh 30.04 in1017.3 mb 1.39 in35.3 mm 0.00 in0.0 mm 1.39 in35.3 mm
01:52 AM 62.8°F17.1°C 56.2°F13.4°C 79% 1.8 mph W2.9 kmh W 2.7 mph4.3 kmh 30.04 in1017.3 mb 1.39 in35.3 mm 0.00 in0.0 mm 1.39 in35.3 mm
01:51 AM 62.8°F17.1°C 56.2°F13.4°C 79% 1.8 mph NW2.9 kmh NW 2.7 mph4.3 kmh 30.04 in1017.3 mb 1.39 in35.3 mm 0.00 in0.0 mm 1.39 in35.3 mm
01:50 AM 62.8°F17.1°C 56.2°F13.4°C 79% 1.8 mph NW2.9 kmh NW 2.7 mph4.3 kmh 30.05 in1017.6 mb 1.39 in35.3 mm 0.00 in0.0 mm 1.39 in35.3 mm
01:49 AM 62.8°F17.1°C 56.2°F13.4°C 79% 2.3 mph NW3.7 kmh NW 3.7 mph6.0 kmh 30.04 in1017.3 mb 1.39 in35.3 mm 0.00 in0.0 mm 1.39 in35.3 mm
01:48 AM 62.8°F17.1°C 56.2°F13.4°C 79% 2.3 mph 3.7 kmh 3.7 mph6.0 kmh 30.05 in1017.6 mb 1.39 in35.3 mm 0.00 in0.0 mm 1.39 in35.3 mm
01:47 AM 62.8°F17.1°C 56.2°F13.4°C 79% 2.3 mph 3.7 kmh 3.2 mph5.1 kmh 30.04 in1017.3 mb 1.39 in35.3 mm 0.00 in0.0 mm 1.39 in35.3 mm
01:46 AM 62.8°F17.1°C 56.2°F13.4°C 79% 1.8 mph 2.9 kmh 3.2 mph5.1 kmh 30.04 in1017.3 mb 1.39 in35.3 mm 0.00 in0.0 mm 1.39 in35.3 mm
01:45 AM 62.8°F17.1°C 56.2°F13.4°C 79% 2.7 mph 4.3 kmh 3.7 mph6.0 kmh 30.05 in1017.6 mb 1.39 in35.3 mm 0.00 in0.0 mm 1.39 in35.3 mm
01:44 AM 62.8°F17.1°C 56.2°F13.4°C 79% 2.3 mph W3.7 kmh W 4.1 mph6.6 kmh 30.05 in1017.6 mb 1.39 in35.3 mm 0.00 in0.0 mm 1.39 in35.3 mm
01:43 AM 62.8°F17.1°C 56.2°F13.4°C 79% 1.8 mph W2.9 kmh W 2.3 mph3.7 kmh 30.05 in1017.6 mb 1.39 in35.3 mm 0.00 in0.0 mm 1.39 in35.3 mm
01:42 AM 62.8°F17.1°C 56.2°F13.4°C 79% 1.4 mph W2.3 kmh W 2.3 mph3.7 kmh 30.05 in1017.6 mb 1.39 in35.3 mm 0.00 in0.0 mm 1.39 in35.3 mm
01:41 AM 62.8°F17.1°C 56.2°F13.4°C 79% 1.8 mph NW2.9 kmh NW 2.3 mph3.7 kmh 30.05 in1017.6 mb 1.39 in35.3 mm 0.00 in0.0 mm 1.39 in35.3 mm
01:40 AM 62.8°F17.1°C 56.2°F13.4°C 79% 2.3 mph E3.7 kmh E 3.2 mph5.1 kmh 30.05 in1017.6 mb 1.39 in35.3 mm 0.00 in0.0 mm 1.39 in35.3 mm
01:39 AM 62.8°F17.1°C 56.2°F13.4°C 79% 1.8 mph 2.9 kmh 3.2 mph5.1 kmh 30.05 in1017.6 mb 1.39 in35.3 mm 0.00 in0.0 mm 1.39 in35.3 mm
01:38 AM 62.8°F17.1°C 56.2°F13.4°C 79% 1.8 mph NNW2.9 kmh NNW 2.7 mph4.3 kmh 30.05 in1017.6 mb 1.39 in35.3 mm 0.00 in0.0 mm 1.39 in35.3 mm
01:37 AM 62.8°F17.1°C 56.2°F13.4°C 79% 2.7 mph W4.3 kmh W 3.7 mph6.0 kmh 30.04 in1017.3 mb 1.39 in35.3 mm 0.00 in0.0 mm 1.39 in35.3 mm
01:36 AM 62.8°F17.1°C 56.2°F13.4°C 79% 1.8 mph W2.9 kmh W 4.1 mph6.6 kmh 30.05 in1017.6 mb 1.39 in35.3 mm 0.00 in0.0 mm 1.39 in35.3 mm
01:35 AM 62.8°F17.1°C 56.2°F13.4°C 79% 1.8 mph W2.9 kmh W 2.3 mph3.7 kmh 30.05 in1017.6 mb 1.39 in35.3 mm 0.00 in0.0 mm 1.39 in35.3 mm
01:34 AM 62.8°F17.1°C 56.2°F13.4°C 79% 1.8 mph 2.9 kmh 3.2 mph5.1 kmh 30.05 in1017.6 mb 1.39 in35.3 mm 0.00 in0.0 mm 1.39 in35.3 mm
01:33 AM 62.8°F17.1°C 56.2°F13.4°C 79% 2.3 mph 3.7 kmh 3.2 mph5.1 kmh 30.05 in1017.6 mb 1.39 in35.3 mm 0.00 in0.0 mm 1.39 in35.3 mm
01:32 AM 62.8°F17.1°C 56.2°F13.4°C 79% 0.9 mph 1.4 kmh 1.4 mph2.3 kmh 30.04 in1017.3 mb 1.39 in35.3 mm 0.00 in0.0 mm 1.39 in35.3 mm
01:31 AM 62.8°F17.1°C 56.2°F13.4°C 79% 1.4 mph 2.3 kmh 1.8 mph2.9 kmh 30.05 in1017.6 mb 1.39 in35.3 mm 0.00 in0.0 mm 1.39 in35.3 mm
01:30 AM 62.8°F17.1°C 56.2°F13.4°C 79% 1.8 mph 2.9 kmh 2.7 mph4.3 kmh 30.05 in1017.6 mb 1.39 in35.3 mm 0.00 in0.0 mm 1.39 in35.3 mm
01:29 AM 62.8°F17.1°C 56.2°F13.4°C 79% 2.3 mph 3.7 kmh 3.2 mph5.1 kmh 30.05 in1017.6 mb 1.39 in35.3 mm 0.00 in0.0 mm 1.39 in35.3 mm
01:28 AM 62.8°F17.1°C 56.2°F13.4°C 79% 1.4 mph 2.3 kmh 2.3 mph3.7 kmh 30.05 in1017.6 mb 1.39 in35.3 mm 0.00 in0.0 mm 1.39 in35.3 mm
01:27 AM 62.6°F17.0°C 56.0°F13.3°C 79% 1.8 mph NW2.9 kmh NW 2.7 mph4.3 kmh 30.05 in1017.6 mb 1.39 in35.3 mm 0.00 in0.0 mm 1.39 in35.3 mm
01:26 AM 62.6°F17.0°C 56.0°F13.3°C 79% 1.4 mph NW2.3 kmh NW 1.8 mph2.9 kmh 30.05 in1017.6 mb 1.39 in35.3 mm 0.00 in0.0 mm 1.39 in35.3 mm
01:25 AM 62.6°F17.0°C 56.0°F13.3°C 79% 1.4 mph 2.3 kmh 1.8 mph2.9 kmh 30.05 in1017.6 mb 1.39 in35.3 mm 0.00 in0.0 mm 1.39 in35.3 mm
01:24 AM 62.6°F17.0°C 56.0°F13.3°C 79% 1.4 mph 2.3 kmh 3.2 mph5.1 kmh 30.05 in1017.6 mb 1.39 in35.3 mm 0.00 in0.0 mm 1.39 in35.3 mm
01:23 AM 62.6°F17.0°C 56.0°F13.3°C 79% 2.3 mph 3.7 kmh 3.2 mph5.1 kmh 30.05 in1017.6 mb 1.39 in35.3 mm 0.00 in0.0 mm 1.39 in35.3 mm
01:22 AM 62.6°F17.0°C 56.3°F13.5°C 80% 1.8 mph W2.9 kmh W 2.7 mph4.3 kmh 30.05 in1017.6 mb 1.39 in35.3 mm 0.00 in0.0 mm 1.39 in35.3 mm
01:21 AM 62.6°F17.0°C 56.3°F13.5°C 80% 2.3 mph 3.7 kmh 3.2 mph5.1 kmh 30.05 in1017.6 mb 1.39 in35.3 mm 0.00 in0.0 mm 1.39 in35.3 mm
01:20 AM 62.6°F17.0°C 56.3°F13.5°C 80% 2.7 mph W4.3 kmh W 4.1 mph6.6 kmh 30.05 in1017.6 mb 1.39 in35.3 mm 0.00 in0.0 mm 1.39 in35.3 mm
01:19 AM 62.6°F17.0°C 56.3°F13.5°C 80% 2.3 mph 3.7 kmh 3.2 mph5.1 kmh 30.05 in1017.6 mb 1.39 in35.3 mm 0.00 in0.0 mm 1.39 in35.3 mm
01:18 AM 62.6°F17.0°C 56.3°F13.5°C 80% 1.8 mph E2.9 kmh E 2.7 mph4.3 kmh 30.05 in1017.6 mb 1.39 in35.3 mm 0.00 in0.0 mm 1.39 in35.3 mm
01:17 AM 62.6°F17.0°C 56.3°F13.5°C 80% 1.8 mph 2.9 kmh 2.7 mph4.3 kmh 30.05 in1017.6 mb 1.39 in35.3 mm 0.00 in0.0 mm 1.39 in35.3 mm
01:16 AM 62.6°F17.0°C 56.3°F13.5°C 80% 1.4 mph 2.3 kmh 1.8 mph2.9 kmh 30.05 in1017.6 mb 1.39 in35.3 mm 0.00 in0.0 mm 1.39 in35.3 mm
01:15 AM 62.4°F16.9°C 56.5°F13.6°C 81% 1.4 mph 2.3 kmh 2.3 mph3.7 kmh 30.05 in1017.6 mb 1.39 in35.3 mm 0.00 in0.0 mm 1.39 in35.3 mm
01:14 AM 62.4°F16.9°C 56.5°F13.6°C 81% 1.4 mph 2.3 kmh 2.7 mph4.3 kmh 30.05 in1017.6 mb 1.39 in35.3 mm 0.00 in0.0 mm 1.39 in35.3 mm
01:13 AM 62.4°F16.9°C 56.5°F13.6°C 81% 0.9 mph 1.4 kmh 1.8 mph2.9 kmh 30.05 in1017.6 mb 1.39 in35.3 mm 0.00 in0.0 mm 1.39 in35.3 mm
01:12 AM 62.4°F16.9°C 56.5°F13.6°C 81% 1.4 mph 2.3 kmh 2.3 mph3.7 kmh 30.05 in1017.6 mb 1.39 in35.3 mm 0.00 in0.0 mm 1.39 in35.3 mm
01:11 AM 62.4°F16.9°C 56.5°F13.6°C 81% 0.9 mph 1.4 kmh 1.8 mph2.9 kmh 30.05 in1017.6 mb 1.39 in35.3 mm 0.00 in0.0 mm 1.39 in35.3 mm
01:10 AM 62.4°F16.9°C 56.5°F13.6°C 81% 0.9 mph 1.4 kmh 2.3 mph3.7 kmh 30.05 in1017.6 mb 1.39 in35.3 mm 0.00 in0.0 mm 1.39 in35.3 mm
01:09 AM 62.4°F16.9°C 56.5°F13.6°C 81% 1.4 mph E2.3 kmh E 1.8 mph2.9 kmh 30.05 in1017.6 mb 1.39 in35.3 mm 0.00 in0.0 mm 1.39 in35.3 mm
01:08 AM 62.4°F16.9°C 56.5°F13.6°C 81% 1.4 mph E2.3 kmh E 1.8 mph2.9 kmh 30.05 in1017.6 mb 1.39 in35.3 mm 0.00 in0.0 mm 1.39 in35.3 mm
01:00 AM 62.4°F16.9°C 56.5°F13.6°C 81% 2.3 mph 3.7 kmh 3.2 mph5.1 kmh 30.05 in1017.6 mb 1.39 in35.3 mm 0.00 in0.0 mm 1.39 in35.3 mm
12:59 AM 62.4°F16.9°C 56.5°F13.6°C 81% 2.7 mph W4.3 kmh W 3.7 mph6.0 kmh 30.05 in1017.6 mb 1.39 in35.3 mm 0.00 in0.0 mm 1.39 in35.3 mm
12:58 AM 62.4°F16.9°C 56.5°F13.6°C 81% 2.3 mph W3.7 kmh W 2.7 mph4.3 kmh 30.05 in1017.6 mb 1.39 in35.3 mm 0.00 in0.0 mm 1.39 in35.3 mm
12:57 AM 62.4°F16.9°C 56.5°F13.6°C 81% 2.7 mph 4.3 kmh 3.7 mph6.0 kmh 30.05 in1017.6 mb 1.39 in35.3 mm 0.00 in0.0 mm 1.39 in35.3 mm
12:56 AM 62.4°F16.9°C 56.5°F13.6°C 81% 2.3 mph 3.7 kmh 2.7 mph4.3 kmh 30.05 in1017.6 mb 1.39 in35.3 mm 0.00 in0.0 mm 1.39 in35.3 mm
12:55 AM 62.4°F16.9°C 56.5°F13.6°C 81% 2.3 mph 3.7 kmh 3.2 mph5.1 kmh 30.05 in1017.6 mb 1.39 in35.3 mm 0.00 in0.0 mm 1.39 in35.3 mm
12:54 AM 62.4°F16.9°C 56.5°F13.6°C 81% 2.7 mph 4.3 kmh 3.7 mph6.0 kmh 30.05 in1017.6 mb 1.39 in35.3 mm 0.00 in0.0 mm 1.39 in35.3 mm
12:53 AM 62.4°F16.9°C 56.5°F13.6°C 81% 2.7 mph 4.3 kmh 3.2 mph5.1 kmh 30.05 in1017.6 mb 1.39 in35.3 mm 0.00 in0.0 mm 1.39 in35.3 mm
12:52 AM 62.4°F16.9°C 56.5°F13.6°C 81% 2.7 mph WNW4.3 kmh WNW 3.7 mph6.0 kmh 30.05 in1017.6 mb 1.39 in35.3 mm 0.00 in0.0 mm 1.39 in35.3 mm
12:51 AM 62.4°F16.9°C 56.5°F13.6°C 81% 3.2 mph 5.1 kmh 3.7 mph6.0 kmh 30.05 in1017.6 mb 1.39 in35.3 mm 0.00 in0.0 mm 1.39 in35.3 mm
12:50 AM 62.4°F16.9°C 56.2°F13.4°C 80% 2.7 mph W4.3 kmh W 3.7 mph6.0 kmh 30.05 in1017.6 mb 1.39 in35.3 mm 0.00 in0.0 mm 1.39 in35.3 mm
12:49 AM 62.4°F16.9°C 56.2°F13.4°C 80% 2.3 mph 3.7 kmh 3.7 mph6.0 kmh 30.05 in1017.6 mb 1.39 in35.3 mm 0.00 in0.0 mm 1.39 in35.3 mm
12:48 AM 62.4°F16.9°C 56.2°F13.4°C 80% 3.2 mph 5.1 kmh 3.7 mph6.0 kmh 30.05 in1017.6 mb 1.39 in35.3 mm 0.00 in0.0 mm 1.39 in35.3 mm
12:47 AM 62.4°F16.9°C 56.2°F13.4°C 80% 2.7 mph 4.3 kmh 3.7 mph6.0 kmh 30.05 in1017.6 mb 1.39 in35.3 mm 0.00 in0.0 mm 1.39 in35.3 mm
12:46 AM 62.4°F16.9°C 56.2°F13.4°C 80% 2.3 mph 3.7 kmh 2.7 mph4.3 kmh 30.05 in1017.6 mb 1.39 in35.3 mm 0.00 in0.0 mm 1.39 in35.3 mm
12:45 AM 62.6°F17.0°C 56.0°F13.3°C 79% 2.7 mph W4.3 kmh W 3.7 mph6.0 kmh 30.05 in1017.6 mb 1.39 in35.3 mm 0.00 in0.0 mm 1.39 in35.3 mm
12:44 AM 62.6°F17.0°C 56.0°F13.3°C 79% 1.4 mph 2.3 kmh 2.3 mph3.7 kmh 30.05 in1017.6 mb 1.39 in35.3 mm 0.00 in0.0 mm 1.39 in35.3 mm
12:43 AM 62.6°F17.0°C 56.0°F13.3°C 79% 1.8 mph 2.9 kmh 2.7 mph4.3 kmh 30.05 in1017.6 mb 1.39 in35.3 mm 0.00 in0.0 mm 1.39 in35.3 mm
12:42 AM 62.6°F17.0°C 56.0°F13.3°C 79% 2.3 mph 3.7 kmh 2.7 mph4.3 kmh 30.05 in1017.6 mb 1.39 in35.3 mm 0.00 in0.0 mm 1.39 in35.3 mm
12:41 AM 62.6°F17.0°C 56.0°F13.3°C 79% 1.8 mph W2.9 kmh W 2.3 mph3.7 kmh 30.05 in1017.6 mb 1.39 in35.3 mm 0.00 in0.0 mm 1.39 in35.3 mm
12:40 AM 62.6°F17.0°C 56.0°F13.3°C 79% 1.4 mph W2.3 kmh W 1.8 mph2.9 kmh 30.05 in1017.6 mb 1.39 in35.3 mm 0.00 in0.0 mm 1.39 in35.3 mm
12:39 AM 62.6°F17.0°C 56.0°F13.3°C 79% 1.4 mph NW2.3 kmh NW 2.3 mph3.7 kmh 30.05 in1017.6 mb 1.39 in35.3 mm 0.00 in0.0 mm 1.39 in35.3 mm
12:38 AM 62.6°F17.0°C 56.0°F13.3°C 79% 1.4 mph 2.3 kmh 2.7 mph4.3 kmh 30.05 in1017.6 mb 1.39 in35.3 mm 0.00 in0.0 mm 1.39 in35.3 mm
12:37 AM 62.4°F16.9°C 56.2°F13.4°C 80% 0.9 mph 1.4 kmh 1.8 mph2.9 kmh 30.05 in1017.6 mb 1.39 in35.3 mm 0.00 in0.0 mm 1.39 in35.3 mm
12:36 AM 62.4°F16.9°C 56.2°F13.4°C 80% 1.8 mph 2.9 kmh 2.7 mph4.3 kmh 30.05 in1017.6 mb 1.39 in35.3 mm 0.00 in0.0 mm 1.39 in35.3 mm
12:35 AM 62.6°F17.0°C 56.0°F13.3°C 79% 1.8 mph 2.9 kmh 2.3 mph3.7 kmh 30.05 in1017.6 mb 1.39 in35.3 mm 0.00 in0.0 mm 1.39 in35.3 mm
12:34 AM 62.6°F17.0°C 56.0°F13.3°C 79% 1.8 mph W2.9 kmh W 2.7 mph4.3 kmh 30.05 in1017.6 mb 1.39 in35.3 mm 0.00 in0.0 mm 1.39 in35.3 mm
12:33 AM 62.6°F17.0°C 56.0°F13.3°C 79% 1.8 mph 2.9 kmh 2.3 mph3.7 kmh 30.05 in1017.6 mb 1.39 in35.3 mm 0.00 in0.0 mm 1.39 in35.3 mm
12:32 AM 62.6°F17.0°C 56.0°F13.3°C 79% 1.8 mph 2.9 kmh 2.7 mph4.3 kmh 30.05 in1017.6 mb 1.39 in35.3 mm 0.00 in0.0 mm 1.39 in35.3 mm
12:31 AM 62.6°F17.0°C 56.0°F13.3°C 79% 1.8 mph 2.9 kmh 2.7 mph4.3 kmh 30.06 in1017.9 mb 1.39 in35.3 mm 0.00 in0.0 mm 1.39 in35.3 mm
12:30 AM 62.6°F17.0°C 56.0°F13.3°C 79% 1.8 mph 2.9 kmh 2.7 mph4.3 kmh 30.05 in1017.6 mb 1.39 in35.3 mm 0.00 in0.0 mm 1.39 in35.3 mm
12:29 AM 62.6°F17.0°C 56.0°F13.3°C 79% 1.8 mph 2.9 kmh 2.7 mph4.3 kmh 30.05 in1017.6 mb 1.39 in35.3 mm 0.00 in0.0 mm 1.39 in35.3 mm
12:28 AM 62.6°F17.0°C 56.0°F13.3°C 79% 2.3 mph 3.7 kmh 3.2 mph5.1 kmh 30.05 in1017.6 mb 1.39 in35.3 mm 0.00 in0.0 mm 1.39 in35.3 mm
12:27 AM 62.6°F17.0°C 56.0°F13.3°C 79% 2.3 mph E3.7 kmh E 3.2 mph5.1 kmh 30.05 in1017.6 mb 1.39 in35.3 mm 0.00 in0.0 mm 1.39 in35.3 mm
12:26 AM 62.6°F17.0°C 56.0°F13.3°C 79% 2.3 mph WNW3.7 kmh WNW 2.7 mph4.3 kmh 30.06 in1017.9 mb 1.39 in35.3 mm 0.00 in0.0 mm 1.39 in35.3 mm
12:25 AM 62.6°F17.0°C 56.0°F13.3°C 79% 2.3 mph 3.7 kmh 3.2 mph5.1 kmh 30.05 in1017.6 mb 1.39 in35.3 mm 0.00 in0.0 mm 1.39 in35.3 mm
12:24 AM 62.6°F17.0°C 56.0°F13.3°C 79% 2.7 mph 4.3 kmh 3.2 mph5.1 kmh 30.06 in1017.9 mb 1.39 in35.3 mm 0.00 in0.0 mm 1.39 in35.3 mm
12:23 AM 62.8°F17.1°C 56.2°F13.4°C 79% 2.3 mph W3.7 kmh W 3.2 mph5.1 kmh 30.05 in1017.6 mb 1.39 in35.3 mm 0.00 in0.0 mm 1.39 in35.3 mm
12:22 AM 62.8°F17.1°C 56.2°F13.4°C 79% 2.3 mph W3.7 kmh W 2.7 mph4.3 kmh 30.05 in1017.6 mb 1.39 in35.3 mm 0.00 in0.0 mm 1.39 in35.3 mm
12:21 AM 62.8°F17.1°C 56.2°F13.4°C 79% 2.3 mph W3.7 kmh W 2.7 mph4.3 kmh 30.05 in1017.6 mb 1.39 in35.3 mm 0.00 in0.0 mm 1.39 in35.3 mm
12:20 AM 62.8°F17.1°C 56.2°F13.4°C 79% 2.7 mph 4.3 kmh 3.7 mph6.0 kmh 30.05 in1017.6 mb 1.39 in35.3 mm 0.00 in0.0 mm 1.39 in35.3 mm
12:19 AM 62.8°F17.1°C 56.2°F13.4°C 79% 1.8 mph NW2.9 kmh NW 3.2 mph5.1 kmh 30.06 in1017.9 mb 1.39 in35.3 mm 0.00 in0.0 mm 1.39 in35.3 mm
12:18 AM 62.8°F17.1°C 56.2°F13.4°C 79% 1.8 mph 2.9 kmh 2.7 mph4.3 kmh 30.05 in1017.6 mb 1.39 in35.3 mm 0.00 in0.0 mm 1.39 in35.3 mm
12:17 AM 62.8°F17.1°C 56.2°F13.4°C 79% 2.3 mph E3.7 kmh E 3.2 mph5.1 kmh 30.05 in1017.6 mb 1.39 in35.3 mm 0.00 in0.0 mm 1.39 in35.3 mm
12:16 AM 62.8°F17.1°C 56.2°F13.4°C 79% 2.3 mph E3.7 kmh E 3.7 mph6.0 kmh 30.05 in1017.6 mb 1.39 in35.3 mm 0.00 in0.0 mm 1.39 in35.3 mm
12:15 AM 62.8°F17.1°C 56.2°F13.4°C 79% 2.3 mph W3.7 kmh W 4.1 mph6.6 kmh 30.06 in1017.9 mb 1.39 in35.3 mm 0.00 in0.0 mm 1.39 in35.3 mm
12:14 AM 62.8°F17.1°C 56.2°F13.4°C 79% 2.7 mph 4.3 kmh 3.7 mph6.0 kmh 30.05 in1017.6 mb 1.39 in35.3 mm 0.00 in0.0 mm 1.39 in35.3 mm
12:13 AM 62.8°F17.1°C 56.2°F13.4°C 79% 2.3 mph 3.7 kmh 3.2 mph5.1 kmh 30.05 in1017.6 mb 1.39 in35.3 mm 0.00 in0.0 mm 1.39 in35.3 mm
12:12 AM 62.8°F17.1°C 56.2°F13.4°C 79% 2.7 mph W4.3 kmh W 3.7 mph6.0 kmh 30.06 in1017.9 mb 1.39 in35.3 mm 0.00 in0.0 mm 1.39 in35.3 mm
12:11 AM 62.8°F17.1°C 56.2°F13.4°C 79% 2.3 mph 3.7 kmh 3.7 mph6.0 kmh 30.05 in1017.6 mb 1.39 in35.3 mm 0.00 in0.0 mm 1.39 in35.3 mm
12:10 AM 62.8°F17.1°C 56.2°F13.4°C 79% 2.7 mph 4.3 kmh 4.1 mph6.6 kmh 30.05 in1017.6 mb 1.39 in35.3 mm 0.00 in0.0 mm 1.39 in35.3 mm
12:09 AM 62.8°F17.1°C 56.2°F13.4°C 79% 2.3 mph 3.7 kmh 3.2 mph5.1 kmh 30.06 in1017.9 mb 1.39 in35.3 mm 0.00 in0.0 mm 1.39 in35.3 mm
12:08 AM 62.6°F17.0°C 56.0°F13.3°C 79% 1.8 mph 2.9 kmh 2.7 mph4.3 kmh 30.05 in1017.6 mb 1.39 in35.3 mm 0.00 in0.0 mm 1.39 in35.3 mm
12:07 AM 62.6°F17.0°C 56.0°F13.3°C 79% 2.7 mph 4.3 kmh 4.1 mph6.6 kmh 30.05 in1017.6 mb 1.39 in35.3 mm 0.00 in0.0 mm 1.39 in35.3 mm
12:06 AM 62.6°F17.0°C 56.0°F13.3°C 79% 3.2 mph E5.1 kmh E 4.6 mph7.4 kmh 30.05 in1017.6 mb 1.39 in35.3 mm 0.00 in0.0 mm 1.39 in35.3 mm
12:05 AM 62.6°F17.0°C 56.0°F13.3°C 79% 2.3 mph E3.7 kmh E 3.7 mph6.0 kmh 30.06 in1017.9 mb 1.39 in35.3 mm 0.00 in0.0 mm 1.39 in35.3 mm
12:04 AM 62.6°F17.0°C 56.0°F13.3°C 79% 2.7 mph NW4.3 kmh NW 4.6 mph7.4 kmh 30.06 in1017.9 mb 1.39 in35.3 mm 0.00 in0.0 mm 1.39 in35.3 mm
12:03 AM 62.6°F17.0°C 56.3°F13.5°C 80% 1.8 mph 2.9 kmh 2.7 mph4.3 kmh 30.05 in1017.6 mb 1.39 in35.3 mm 0.00 in0.0 mm 1.39 in35.3 mm
12:02 AM 62.6°F17.0°C 56.3°F13.5°C 80% 1.8 mph 2.9 kmh 2.3 mph3.7 kmh 30.06 in1017.9 mb 1.39 in35.3 mm 0.00 in0.0 mm 1.39 in35.3 mm
12:01 AM 62.4°F16.9°C 56.5°F13.6°C 81% 1.8 mph 2.9 kmh 3.7 mph6.0 kmh 30.06 in1017.9 mb 1.39 in35.3 mm 0.00 in0.0 mm 1.39 in35.3 mm
12:00 AM 62.4°F16.9°C 56.5°F13.6°C 81% 1.4 mph 2.3 kmh 2.3 mph3.7 kmh 30.06 in1017.9 mb 1.39 in35.3 mm 0.00 in0.0 mm 1.39 in35.3 mm